Another Hard Day at the Office Weather Stats

 
 
 

High monthly outside Temperature, 22.8 , C
Low monthly outside Temperature, -1.0 , C
High yearly outside Temperature, 30.9 , C
Low yearly outside Temperature, -2.2 , C

Low monthly barometer, 1001.1 , mb
High monthly barometer, 1028.0 , mb
Low yearly barometer, 975.0 , mb
High yearly barometer 1041.1 , mb

High wind speed, 25.0 , mph
Time of High wind speed, 21:37 , mph
High monthly wind speed, 47.0 , mph
High yearly wind speed, 55.0 , mph

 

 




3126
                    Temp     Hi    Low   Out    Dew  Wind  Wind   Wind    Hi    Hi   Wind   Heat    THW                Rain    Heat    Cool    In     In    In     In     In   In Air  Wind  Wind    ISS   Arc.
  Date    Time     Out   Temp   Temp   Hum    Pt. Speed   Dir    Run Speed   Dir  Chill  Index  Index   Bar    Rain  Rate    D-D     D-D    Temp   Hum    Dew   Heat    EMC Density  Samp   Tx   Recept  Int.
---------------------------------------------------------------------------------------------------------------------------------------------------------------------------------------------------------------
 3/12/16   0:05    7.0    7.0    7.0    90    5.5   5.0   NNE   0.42   9.0   NNE    5.5    7.1    5.6  1023.8  0.00  0.00   0.039   0.000   21.9    46    9.7   21.0   8.62  .0746    115    1    100.0    5 
 3/12/16   0:10    6.9    7.0    6.9    90    5.4   5.0    NE   0.42   9.0    NE    5.4    7.0    5.5  1023.8  0.00  0.00   0.040   0.000   21.9    46    9.7   21.0   8.62  .0746    116    1    100.0    5 
 3/12/16   0:15    6.9    7.0    6.9    90    5.4   6.0   NNE   0.50  12.0   NNE    5.1    7.0    5.1  1023.7  0.00  0.00   0.040   0.000   21.8    46    9.7   20.9   8.62  .0746    117    1    100.0    5 
 3/12/16   0:20    6.9    6.9    6.9    90    5.4   6.0   NNE   0.50  10.0   NNE    5.1    7.0    5.1  1023.7  0.00  0.00   0.040   0.000   21.8    46    9.6   20.8   8.63  .0746    117    1    100.0    5 
 3/12/16   0:25    6.9    6.9    6.9    90    5.4   5.0   NNE   0.42   9.0     N    5.4    7.0    5.5  1023.6  0.00  0.00   0.040   0.000   21.8    46    9.6   20.8   8.63  .0746    118    1    100.0    5 
 3/12/16   0:30    6.9    6.9    6.9    90    5.4   5.0   NNE   0.42   9.0   NNE    5.3    6.9    5.4  1023.6  0.00  0.00   0.040   0.000   21.7    46    9.6   20.7   8.63  .0747    117    1    100.0    5 
 3/12/16   0:35    6.9    6.9    6.9    90    5.4   5.0   NNE   0.42   9.0   NNE    5.3    6.9    5.4  1023.6  0.00  0.00   0.040   0.000   21.7    46    9.6   20.7   8.63  .0747    116    1    100.0    5 
 3/12/16   0:40    6.9    6.9    6.9    90    5.4   4.0    NE   0.33   9.0   NNE    5.8    7.0    5.9  1023.6  0.00  0.00   0.040   0.000   21.7    46    9.5   20.7   8.63  .0747    116    1    100.0    5 
 3/12/16   0:45    6.9    6.9    6.9    91    5.6   6.0   NNE   0.50  12.0   NNE    5.1    7.0    5.1  1023.5  0.00  0.00   0.040   0.000   21.7    46    9.5   20.7   8.63  .0747    116    1    100.0    5 
 3/12/16   0:50    6.9    6.9    6.9    90    5.4   6.0   NNE   0.50  10.0   NNE    5.1    7.0    5.1  1023.5  0.00  0.00   0.040   0.000   21.7    46    9.5   20.7   8.63  .0747    116    1    100.0    5 
 3/12/16   0:55    6.9    6.9    6.9    90    5.4   6.0   NNE   0.50  10.0     N    5.0    6.9    5.1  1023.5  0.00  0.00   0.040   0.000   21.6    46    9.5   20.6   8.63  .0747    116    1    100.0    5 
 3/12/16   1:00    6.9    6.9    6.9    90    5.4   7.0   NNE   0.58  11.0   NNE    4.7    6.9    4.8  1023.5  0.00  0.00   0.040   0.000   21.6    45    9.1   20.4   8.45  .0747    117    1    100.0    5 
 3/12/16   1:05    6.8    6.9    6.8    90    5.3   5.0   NNE   0.42  10.0    NE    5.3    6.9    5.3  1023.6  0.00  0.00   0.040   0.000   21.6    45    9.1   20.4   8.45  .0747    116    1    100.0    5 
 3/12/16   1:10    6.8    6.8    6.8    91    5.5   7.0   NNE   0.58  11.0   NNE    4.7    6.9    4.7  1023.5  0.00  0.00   0.040   0.000   21.5    45    9.1   20.4   8.45  .0747    117    1    100.0    5 
 3/12/16   1:15    6.8    6.8    6.8    91    5.4   6.0   NNE   0.50  11.0   ENE    4.8    6.8    4.9  1023.6  0.00  0.00   0.040   0.000   21.5    45    9.1   20.4   8.45  .0747    115    1    100.0    5 
 3/12/16   1:20    6.8    6.8    6.8    91    5.4   7.0   NNE   0.58  12.0   NNE    4.6    6.8    4.6  1023.6  0.00  0.00   0.040   0.000   21.4    45    9.0   20.3   8.45  .0748    117    1    100.0    5 
 3/12/16   1:25    6.8    6.8    6.8    91    5.4   7.0   NNE   0.58  16.0   NNE    4.6    6.8    4.6  1023.5  0.00  0.00   0.040   0.000   21.4    45    9.0   20.3   8.45  .0748    118    1    100.0    5 
 3/12/16   1:30    6.8    6.8    6.8    91    5.4   6.0   NNE   0.50  13.0    NE    4.8    6.8    4.9  1023.5  0.00  0.00   0.040   0.000   21.4    45    9.0   20.2   8.45  .0748    117    1    100.0    5 
 3/12/16   1:35    6.8    6.8    6.8    91    5.4   8.0   NNE   0.67  13.0   NNE    4.2    6.8    4.3  1023.5  0.00  0.00   0.040   0.000   21.3    45    8.9   20.2   8.45  .0748    116    1    100.0    5 
 3/12/16   1:40    6.8    6.8    6.8    91    5.4   6.0   NNE   0.50  11.0    NE    4.8    6.8    4.9  1023.5  0.00  0.00   0.040   0.000   21.3    45    8.9   20.2   8.45  .0748    116    1    100.0    5 
 3/12/16   1:45    6.8    6.8    6.7    91    5.4   6.0   NNE   0.50   9.0   NNE    4.8    6.8    4.9  1023.5  0.00  0.00   0.040   0.000   21.3    45    8.9   20.1   8.45  .0748    117    1    100.0    5 
 3/12/16   1:50    6.7    6.7    6.7    91    5.4   6.0   NNE   0.50  10.0   NNE    4.8    6.8    4.8  1023.6  0.00  0.00   0.040   0.000   21.3    45    8.9   20.1   8.45  .0748    117    1    100.0    5 
 3/12/16   1:55    6.7    6.7    6.7    91    5.4   6.0   NNE   0.50  11.0    NE    4.8    6.8    4.8  1023.6  0.00  0.00   0.040   0.000   21.3    45    8.9   20.1   8.45  .0748    117    1    100.0    5 
 3/12/16   2:00    6.7    6.7    6.7    91    5.3   7.0   NNE   0.58  13.0    NE    4.4    6.7    4.5  1023.5  0.00  0.00   0.041   0.000   21.2    45    8.8   20.1   8.45  .0748    117    1    100.0    5 
 3/12/16   2:05    6.6    6.7    6.6    91    5.2   7.0   NNE   0.58  13.0   NNE    4.4    6.7    4.4  1023.5  0.00  0.00   0.041   0.000   21.2    45    8.8   19.9   8.45  .0748    117    1    100.0    5 
 3/12/16   2:10    6.6    6.7    6.6    91    5.2   7.0   NNE   0.58  11.0   NNE    4.4    6.7    4.4  1023.5  0.00  0.00   0.041   0.000   21.2    45    8.8   19.9   8.45  .0748    117    1    100.0    5 
 3/12/16   2:15    6.6    6.6    6.6    91    5.2   7.0   NNE   0.58  15.0   NNE    4.3    6.6    4.4  1023.5  0.00  0.00   0.041   0.000   21.2    45    8.8   19.9   8.45  .0748    115    1    100.0    5 
 3/12/16   2:20    6.5    6.6    6.5    91    5.1   9.0   NNE   0.75  14.0   NNE    3.6    6.6    3.6  1023.3  0.00  0.00   0.041   0.000   21.1    45    8.7   19.9   8.45  .0748    116    1    100.0    5 
 3/12/16   2:25    6.4    6.5    6.4    91    5.0   9.0   NNE   0.75  16.0   NNE    3.4    6.4    3.5  1023.4  0.00  0.00   0.041   0.000   21.1    45    8.7   19.8   8.45  .0749    117    1    100.0    5 
 3/12/16   2:30    6.3    6.4    6.3    91    4.9   8.0   NNE   0.67  17.0    NE    3.7    6.3    3.7  1023.3  0.00  0.00   0.042   0.000   21.1    45    8.7   19.8   8.45  .0749    117    1    100.0    5 
 3/12/16   2:35    6.2    6.3    6.2    91    4.9   8.0   NNE   0.67  14.0   NNE    3.6    6.2    3.6  1023.3  0.00  0.00   0.042   0.000   21.0    45    8.6   19.8   8.45  .0749    115    1    100.0    5 
 3/12/16   2:40    6.1    6.2    6.1    91    4.8   8.0   NNE   0.67  17.0   NNE    3.4    6.1    3.4  1023.3  0.00  0.00   0.042   0.000   20.9    45    8.6   19.8   8.46  .0749    117    1    100.0    5 
 3/12/16   2:45    6.1    6.1    6.1    91    4.7   8.0   NNE   0.67  17.0     N    3.4    6.1    3.4  1023.3  0.00  0.00   0.043   0.000   20.9    45    8.6   19.8   8.46  .0749    117    1    100.0    5 
 3/12/16   2:50    6.0    6.1    6.0    91    4.6   8.0   NNE   0.67  13.0    NE    3.3    6.0    3.3  1023.3  0.00  0.00   0.043   0.000   20.9    45    8.5   19.7   8.46  .0749    115    1    100.0    5 
 3/12/16   2:55    6.0    6.0    5.9    91    4.6   6.0    NE   0.50  11.0    NE    3.9    6.0    3.9  1023.4  0.00  0.00   0.043   0.000   20.8    45    8.5   19.7   8.46  .0749    117    1    100.0    5 
 3/12/16   3:00    5.9    6.0    5.9    91    4.6   5.0    NE   0.42  10.0    NE    4.2    5.9    4.2  1023.4  0.00  0.00   0.043   0.000   20.8    45    8.5   19.7   8.46  .0749    116    1    100.0    5 
 3/12/16   3:05    5.9    5.9    5.9    91    4.5   7.0   NNE   0.58  11.0     N    3.5    5.9    3.5  1023.4  0.00  0.00   0.043   0.000   20.8    45    8.5   19.7   8.46  .0749    116    1    100.0    5 
 3/12/16   3:10    5.8    5.9    5.8    91    4.5   7.0   NNE   0.58  13.0    NE    3.4    5.8    3.4  1023.4  0.00  0.00   0.043   0.000   20.8    45    8.4   19.7   8.46  .0749    117    1    100.0    5 
 3/12/16   3:15    5.8    5.8    5.8    91    4.4   7.0   NNE   0.58  12.0   NNE    3.3    5.8    3.3  1023.3  0.00  0.00   0.044   0.000   20.8    45    8.4   19.7   8.46  .0749    116    1    100.0    5 
 3/12/16   3:20    5.8    5.8    5.8    91    4.4   6.0   NNE   0.50  10.0    NE    3.7    5.8    3.7  1023.3  0.00  0.00   0.044   0.000   20.8    45    8.4   19.7   8.46  .0749    115    1    100.0    5 
 3/12/16   3:25    5.7    5.8    5.7    91    4.4   7.0   NNE   0.58  12.0   NNE    3.3    5.7    3.3  1023.2  0.00  0.00   0.044   0.000   20.7    45    8.4   19.6   8.46  .0750    116    1    100.0    5 
 3/12/16   3:30    5.7    5.7    5.7    92    4.5   7.0   NNE   0.58  13.0   NNE    3.3    5.7    3.3  1023.3  0.00  0.00   0.044   0.000   20.7    45    8.3   19.6   8.47  .0750    117    1    100.0    5 
 3/12/16   3:35    5.8    5.8    5.7    92    4.6   7.0   NNE   0.58  13.0   NNE    3.3    5.8    3.3  1023.2  0.00  0.00   0.044   0.000   20.7    45    8.3   19.6   8.47  .0750    118    1    100.0    5 
 3/12/16   3:40    5.8    5.8    5.8    92    4.6   8.0   NNE   0.67  13.0    NE    3.1    5.8    3.1  1023.2  0.00  0.00   0.043   0.000   20.6    45    8.3   19.6   8.47  .0750    117    1    100.0    5 
 3/12/16   3:45    5.8    5.8    5.8    92    4.6   8.0   NNE   0.67  12.0   NNE    3.1    5.8    3.1  1023.2  0.00  0.00   0.043   0.000   20.6    45    8.3   19.6   8.47  .0750    117    1    100.0    5 
 3/12/16   3:50    5.9    5.9    5.8    92    4.7   8.0   NNE   0.67  12.0   NNE    3.2    5.9    3.2  1023.1  0.00  0.00   0.043   0.000   20.6    45    8.2   19.5   8.47  .0750    117    1    100.0    5 
 3/12/16   3:55    5.9    5.9    5.9    92    4.7   8.0   NNE   0.67  13.0   NNE    3.2    5.9    3.2  1023.0  0.00  0.00   0.043   0.000   20.6    45    8.2   19.5   8.47  .0750    115    1    100.0    5 
 3/12/16   4:00    5.8    5.9    5.8    92    4.6   7.0   NNE   0.58  11.0   NNE    3.4    5.8    3.4  1023.1  0.00  0.00   0.043   0.000   20.5    45    8.2   19.4   8.47  .0750    116    1    100.0    5 
 3/12/16   4:05    5.8    5.9    5.8    92    4.6   9.0   NNE   0.75  15.0   NNE    2.8    5.8    2.8  1023.1  0.00  0.00   0.043   0.000   20.5    45    8.2   19.4   8.47  .0750    117    1    100.0    5 
 3/12/16   4:10    5.9    5.9    5.8    92    4.7   9.0   NNE   0.75  14.0   NNE    2.9    5.9    2.9  1023.0  0.00  0.00   0.043   0.000   20.4    45    8.1   19.4   8.47  .0750    117    1    100.0    5 
 3/12/16   4:15    5.9    5.9    5.8    92    4.7   9.0   NNE   0.75  15.0   NNE    2.9    5.9    2.9  1023.1  0.00  0.00   0.043   0.000   20.4    45    8.1   19.3   8.48  .0750    116    1    100.0    5 
 3/12/16   4:20    5.9    5.9    5.9    92    4.7   9.0   NNE   0.75  15.0   NNE    2.9    5.9    2.9  1023.0  0.00  0.00   0.043   0.000   20.3    45    8.0   19.3   8.48  .0750    116    1    100.0    5 
 3/12/16   4:25    5.9    5.9    5.9    92    4.7   9.0   NNE   0.75  16.0   NNE    2.9    5.9    2.9  1023.1  0.00  0.00   0.043   0.000   20.3    45    8.0   19.2   8.48  .0751    116    1    100.0    5 
 3/12/16   4:30    5.9    5.9    5.9    92    4.7   9.0   NNE   0.75  13.0   NNE    2.9    5.9    2.9  1023.0  0.00  0.00   0.043   0.000   20.3    45    8.0   19.2   8.48  .0751    117    1    100.0    5 
 3/12/16   4:35    5.9    5.9    5.9    92    4.7  10.0   NNE   0.83  15.0   NNE    2.7    5.9    2.7  1022.9  0.00  0.00   0.043   0.000   20.2    45    7.9   19.2   8.48  .0751    115    1    100.0    5 
 3/12/16   4:40    5.9    5.9    5.9    92    4.7   9.0   NNE   0.75  15.0   NNE    2.9    5.9    2.9  1022.9  0.00  0.00   0.043   0.000   20.2    45    7.9   19.2   8.48  .0751    118    1    100.0    5 
 3/12/16   4:45    5.9    5.9    5.9    92    4.7   8.0   NNE   0.67  15.0    NE    3.2    5.9    3.2  1023.0  0.00  0.00   0.043   0.000   20.2    45    7.9   19.2   8.48  .0751    117    1    100.0    5 
 3/12/16   4:50    5.9    5.9    5.9    92    4.7   8.0   NNE   0.67  13.0   NNE    3.2    5.9    3.2  1023.0  0.00  0.00   0.043   0.000   20.2    45    7.9   19.2   8.48  .0751    117    1    100.0    5 
 3/12/16   4:55    5.9    5.9    5.9    92    4.7   7.0   NNE   0.58  10.0   NNE    3.5    5.9    3.5  1022.9  0.00  0.00   0.043   0.000   20.1    45    7.8   19.1   8.49  .0751    117    1    100.0    5 
 3/12/16   5:00    5.9    5.9    5.9    92    4.7   7.0   NNE   0.58  11.0   NNE    3.6    5.9    3.6  1023.1  0.00  0.00   0.043   0.000   20.1    45    7.8   19.1   8.49  .0751    117    1    100.0    5 
 3/12/16   5:05    5.9    6.0    5.9    92    4.7   8.0   NNE   0.67  12.0    NE    3.2    5.9    3.2  1023.1  0.00  0.00   0.043   0.000   20.1    45    7.7   19.1   8.49  .0751    117    1    100.0    5 
 3/12/16   5:10    6.0    6.0    5.9    92    4.8   8.0   NNE   0.67  15.0   NNE    3.3    6.0    3.3  1023.0  0.00  0.00   0.043   0.000   20.1    45    7.7   19.1   8.49  .0751    117    1    100.0    5 
 3/12/16   5:15    6.0    6.0    6.0    92    4.8   8.0   NNE   0.67  15.0    NE    3.3    6.0    3.3  1023.1  0.00  0.00   0.043   0.000   20.0    45    7.7   19.0   8.49  .0752    117    1    100.0    5 
 3/12/16   5:20    6.0    6.0    6.0    92    4.8   8.0   NNE   0.67  13.0   NNE    3.3    6.0    3.3  1023.2  0.00  0.00   0.043   0.000   20.0    45    7.7   19.0   8.49  .0752    117    1    100.0    5 
 3/12/16   5:25    6.0    6.0    6.0    92    4.8   8.0   NNE   0.67  11.0   NNE    3.3    6.0    3.3  1023.1  0.00  0.00   0.043   0.000   19.9    45    7.6   18.9   8.49  .0752    115    1    100.0    5 
 3/12/16   5:30    6.0    6.0    6.0    92    4.8   8.0   NNE   0.67  14.0    NE    3.3    6.0    3.3  1023.1  0.00  0.00   0.043   0.000   19.9    45    7.6   18.9   8.49  .0752    117    1    100.0    5 
 3/12/16   5:35    6.0    6.0    6.0    92    4.8   7.0   NNE   0.58  12.0   NNE    3.6    6.0    3.6  1023.1  0.00  0.00   0.043   0.000   19.9    45    7.6   18.9   8.49  .0752    117    1    100.0    5 
 3/12/16   5:40    6.0    6.0    5.9    92    4.8   7.0   NNE   0.58  12.0   NNE    3.6    6.0    3.6  1023.1  0.00  0.00   0.043   0.000   19.9    45    7.6   18.9   8.49  .0752    116    1    100.0    5 
 3/12/16   5:45    5.9    6.0    5.9    92    4.7   7.0   NNE   0.58  13.0    NE    3.6    5.9    3.6  1023.1  0.00  0.00   0.043   0.000   19.9    45    7.6   18.9   8.49  .0752    118    1    100.0    5 
 3/12/16   5:50    6.0    6.0    5.9    92    4.8   8.0   NNE   0.67  13.0   NNE    3.3    6.0    3.3  1023.2  0.00  0.00   0.043   0.000   19.8    45    7.5   18.8   8.50  .0752    117    1    100.0    5 
 3/12/16   5:55    6.0    6.0    5.9    92    4.8   9.0   NNE   0.75  12.0    NE    3.0    6.0    3.0  1023.1  0.00  0.00   0.043   0.000   19.8    45    7.5   18.8   8.50  .0752    117    1    100.0    5 
 3/12/16   6:00    6.0    6.0    5.9    92    4.8   7.0   NNE   0.58  12.0    NE    3.6    6.0    3.6  1023.1  0.00  0.00   0.043   0.000   19.8    45    7.5   18.8   8.50  .0752    115    1    100.0    5 
 3/12/16   6:05    6.0    6.0    5.9    92    4.8   8.0   NNE   0.67  12.0    NE    3.3    6.0    3.3  1023.1  0.00  0.00   0.043   0.000   19.8    45    7.5   18.8   8.50  .0752    117    1    100.0    5 
 3/12/16   6:10    5.9    6.0    5.9    91    4.6   8.0   NNE   0.67  12.0   NNE    3.2    5.9    3.2  1023.2  0.00  0.00   0.043   0.000   19.7    45    7.4   18.7   8.50  .0752    117    1    100.0    5 
 3/12/16   6:15    5.9    6.0    5.9    91    4.6   7.0   NNE   0.58  11.0   NNE    3.6    5.9    3.6  1023.1  0.00  0.00   0.043   0.000   19.7    45    7.4   18.7   8.50  .0752    115    1    100.0    5 
 3/12/16   6:20    5.9    5.9    5.9    91    4.6   8.0   NNE   0.67  14.0   NNE    3.2    5.9    3.2  1023.2  0.00  0.00   0.043   0.000   19.7    45    7.4   18.6   8.50  .0753    117    1    100.0    5 
 3/12/16   6:25    5.9    5.9    5.9    91    4.5   8.0   NNE   0.67  15.0   NNE    3.2    5.9    3.2  1023.2  0.00  0.00   0.043   0.000   19.7    45    7.4   18.6   8.50  .0753    117    1    100.0    5 
 3/12/16   6:30    5.9    5.9    5.9    91    4.5   8.0   NNE   0.67  14.0   NNE    3.2    5.9    3.2  1023.2  0.00  0.00   0.043   0.000   19.6    45    7.3   18.6   8.50  .0753    117    1    100.0    5 
 3/12/16   6:35    5.9    5.9    5.9    91    4.5   8.0   NNE   0.67  13.0   NNE    3.2    5.9    3.2  1023.2  0.00  0.00   0.043   0.000   19.6    45    7.3   18.5   8.51  .0753    117    1    100.0    5 
 3/12/16   6:40    5.9    5.9    5.9    91    4.5   8.0   NNE   0.67  13.0   NNE    3.2    5.9    3.2  1023.2  0.00  0.00   0.043   0.000   19.6    45    7.3   18.5   8.51  .0753    117    1    100.0    5 
 3/12/16   6:45    5.9    5.9    5.9    91    4.5   7.0   NNE   0.58  12.0   NNE    3.5    5.9    3.5  1023.2  0.00  0.00   0.043   0.000   19.6    45    7.3   18.5   8.51  .0753    117    1    100.0    5 
 3/12/16   6:50    5.9    5.9    5.8    91    4.5   8.0   NNE   0.67  13.0   NNE    3.2    5.9    3.2  1023.2  0.00  0.00   0.043   0.000   19.5    45    7.2   18.4   8.51  .0753    118    1    100.0    5 
 3/12/16   6:55    5.9    5.9    5.9    91    4.5   8.0   NNE   0.67  11.0   NNW    3.2    5.9    3.2  1023.2  0.00  0.00   0.043   0.000   19.4    45    7.2   18.4   8.51  .0753    117    1    100.0    5 
 3/12/16   7:00    5.9    5.9    5.9    91    4.5   7.0   NNE   0.58  12.0    NE    3.5    5.9    3.5  1023.3  0.00  0.00   0.043   0.000   19.4    45    7.2   18.4   8.51  .0753    114    1    100.0    5 
 3/12/16   7:05    5.9    5.9    5.9    90    4.4   9.0   NNE   0.75  15.0    NE    2.9    5.9    2.9  1023.3  0.00  0.00   0.043   0.000   19.4    45    7.1   18.3   8.51  .0754    117    1    100.0    5 
 3/12/16   7:10    5.9    5.9    5.9    90    4.4   8.0   NNE   0.67  15.0   NNE    3.2    5.9    3.2  1023.3  0.00  0.00   0.043   0.000   19.4    45    7.1   18.3   8.51  .0754    117    1    100.0    5 
 3/12/16   7:15    5.9    5.9    5.9    90    4.4   8.0   NNE   0.67  17.0   NNE    3.2    5.9    3.2  1023.3  0.00  0.00   0.043   0.000   19.4    45    7.1   18.3   8.51  .0754    117    1    100.0    5 
 3/12/16   7:20    5.9    5.9    5.9    90    4.4   7.0   NNE   0.58  12.0    NE    3.6    5.9    3.6  1023.4  0.00  0.00   0.043   0.000   19.3    45    7.1   18.3   8.51  .0754    117    1    100.0    5 
 3/12/16   7:25    6.0    6.0    5.9    90    4.5   6.0   NNE   0.50  11.0    NE    3.9    6.0    3.9  1023.5  0.00  0.00   0.043   0.000   19.3    45    7.1   18.3   8.51  .0754    117    1    100.0    5 
 3/12/16   7:30    6.0    6.0    5.9    90    4.5   6.0   NNE   0.50  10.0    NE    3.9    6.0    3.9  1023.6  0.00  0.00   0.043   0.000   19.3    45    7.1   18.3   8.51  .0754    117    1    100.0    5 
 3/12/16   7:35    6.0    6.0    6.0    90    4.5   7.0   NNE   0.58  12.0   NNE    3.6    6.0    3.6  1023.6  0.00  0.00   0.043   0.000   19.4    45    7.1   18.3   8.51  .0754    116    1    100.0    5 
 3/12/16   7:40    6.0    6.0    6.0    90    4.5   6.0   NNE   0.50  11.0    NE    3.9    6.0    3.9  1023.6  0.00  0.00   0.043   0.000   19.4    45    7.1   18.3   8.51  .0754    116    1    100.0    5 
 3/12/16   7:45    6.1    6.1    6.0    90    4.5   7.0   NNE   0.58  11.0   NNE    3.7    6.1    3.7  1023.6  0.00  0.00   0.043   0.000   19.4    45    7.2   18.4   8.51  .0754    116    1    100.0    5 
 3/12/16   7:50    6.1    6.1    6.0    90    4.5   6.0   NNE   0.50  11.0    NE    4.0    6.1    4.0  1023.7  0.00  0.00   0.043   0.000   19.5    45    7.2   18.4   8.51  .0754    118    1    100.0    5 
 3/12/16   7:55    6.1    6.1    6.1    89    4.4   6.0   NNE   0.50  10.0    NE    4.0    6.1    4.0  1023.7  0.00  0.00   0.043   0.000   19.5    45    7.2   18.4   8.51  .0754    117    1    100.0    5 
 3/12/16   8:00    6.1    6.1    6.1    89    4.4   6.0   NNE   0.50   9.0   NNE    4.0    6.1    4.0  1023.7  0.00  0.00   0.043   0.000   19.6    46    7.7   18.6   8.65  .0753    117    1    100.0    5 
 3/12/16   8:05    6.1    6.1    6.1    89    4.4   5.0   NNE   0.42   8.0    NE    4.4    6.1    4.4  1023.7  0.00  0.00   0.043   0.000   19.7    46    7.7   18.7   8.65  .0753    116    1    100.0    5 
 3/12/16   8:10    6.1    6.1    6.1    89    4.4   4.0   NNE   0.33   7.0   NNE    4.9    6.1    4.9  1023.8  0.00  0.00   0.042   0.000   19.7    45    7.4   18.7   8.50  .0753    117    1    100.0    5 
 3/12/16   8:15    6.2    6.2    6.1    90    4.6   4.0   NNE   0.33  10.0    NE    4.9    6.2    4.9  1023.8  0.00  0.00   0.042   0.000   19.8    45    7.5   18.8   8.50  .0753    116    1    100.0    5 
 3/12/16   8:20    6.2    6.2    6.2    90    4.7   4.0    NE   0.33   8.0    NE    5.0    6.2    5.0  1023.8  0.00  0.00   0.042   0.000   19.8    45    7.5   18.8   8.50  .0753    116    1    100.0    5 
 3/12/16   8:25    6.3    6.3    6.2    89    4.7   6.0    NE   0.50  12.0    NE    4.3    6.3    4.3  1023.9  0.00  0.00   0.042   0.000   19.8    45    7.5   18.8   8.50  .0753    117    1    100.0    5 
 3/12/16   8:30    6.4    6.4    6.3    90    4.9   5.0    NE   0.42   9.0    NE    4.8    6.5    4.9  1023.8  0.00  0.00   0.041   0.000   19.7    45    7.4   18.7   8.50  .0753    117    1    100.0    5 
 3/12/16   8:35    6.5    6.5    6.4    89    4.8   6.0   ENE   0.50  10.0    NE    4.5    6.5    4.5  1023.8  0.00  0.00   0.041   0.000   19.7    45    7.4   18.6   8.50  .0753    116    1    100.0    5 
 3/12/16   8:40    6.6    6.6    6.5    89    4.9   4.0    NE   0.33  10.0    NE    5.4    6.6    5.4  1023.9  0.00  0.00   0.041   0.000   19.7    46    7.7   18.7   8.65  .0753    117    1    100.0    5 
 3/12/16   8:45    6.7    6.7    6.6    89    5.0   7.0   ENE   0.58  13.0   ENE    4.5    6.8    4.6  1023.8  0.00  0.00   0.040   0.000   19.7    46    7.8   18.8   8.65  .0753    116    1    100.0    5 
 3/12/16   8:50    6.8    6.8    6.7    89    5.1   6.0    NE   0.50  11.0    NE    4.9    6.9    5.0  1023.9  0.00  0.00   0.040   0.000   19.8    46    7.8   18.8   8.65  .0753    117    1    100.0    5 
 3/12/16   8:55    7.1    7.1    6.8    89    5.4   5.0    NE   0.42  13.0   ENE    5.6    7.1    5.6  1023.9  0.00  0.00   0.039   0.000   19.8    47    8.2   18.9   8.80  .0752    118    1    100.0    5 
 3/12/16   9:00    7.2    7.2    7.1    89    5.5   8.0   ENE   0.67  15.0    NE    4.7    7.2    4.8  1023.9  0.00  0.00   0.039   0.000   19.8    46    7.9   18.9   8.65  .0753    117    1    100.0    5 
 3/12/16   9:05    7.3    7.3    7.2    88    5.5   7.0   ENE   0.58  16.0    NE    5.2    7.3    5.2  1023.8  0.00  0.00   0.038   0.000   19.9    46    7.9   18.9   8.65  .0752    115    1    100.0    5 
 3/12/16   9:10    7.6    7.6    7.3    88    5.7   6.0   ENE   0.50  10.0    NE    5.8    7.6    5.8  1023.9  0.00  0.00   0.037   0.000   19.9    46    7.9   18.9   8.65  .0752    114    1    100.0    5 
 3/12/16   9:15    7.7    7.7    7.6    87    5.7   6.0    NE   0.50  14.0    NE    6.0    7.7    6.0  1024.0  0.00  0.00   0.037   0.000   19.9    46    7.9   18.9   8.65  .0752    116    1    100.0    5 
 3/12/16   9:20    7.9    7.9    7.7    86    5.7   8.0    NE   0.67  13.0   ENE    5.6    7.9    5.6  1024.0  0.00  0.00   0.036   0.000   19.9    46    7.9   18.9   8.65  .0752    117    1    100.0    5 
 3/12/16   9:25    8.1    8.1    7.9    86    5.9   7.0   ENE   0.58  15.0   ENE    6.2    8.1    6.2  1023.9  0.00  0.00   0.035   0.000   19.9    46    7.9   18.9   8.65  .0752    116    1    100.0    5 
 3/12/16   9:30    8.3    8.3    8.1    85    6.0   6.0   ENE   0.50  14.0   ENE    6.7    8.3    6.7  1023.9  0.00  0.00   0.035   0.000   19.9    46    7.9   18.9   8.65  .0752    117    1    100.0    5 
 3/12/16   9:35    8.5    8.5    8.3    84    5.9   9.0   ENE   0.75  15.0   ENE    5.9    8.5    5.9  1024.0  0.00  0.00   0.034   0.000   19.8    46    7.9   18.9   8.65  .0753    117    1    100.0    5 
 3/12/16   9:40    8.6    8.6    8.5    83    5.9   8.0   ENE   0.67  14.0    NE    6.4    8.6    6.3  1024.0  0.00  0.00   0.034   0.000   19.9    46    7.9   18.9   8.65  .0752    117    1    100.0    5 
 3/12/16   9:45    8.8    8.8    8.6    83    6.0   8.0   ENE   0.67  14.0     E    6.6    8.8    6.6  1024.1  0.00  0.00   0.033   0.000   19.9    46    7.9   18.9   8.65  .0752    117    1    100.0    5 
 3/12/16   9:50    8.9    8.9    8.8    82    6.0   7.0   ENE   0.58  15.0   ENE    7.2    8.9    7.1  1024.0  0.00  0.00   0.033   0.000   19.9    46    7.9   18.9   8.65  .0752    117    1    100.0    5 
 3/12/16   9:55    9.0    9.0    8.9    81    5.9   8.0   ENE   0.67  15.0    NE    6.8    8.9    6.8  1024.0  0.00  0.00   0.032   0.000   19.9    46    7.9   18.9   8.65  .0752    117    1    100.0    5 
 3/12/16  10:00    9.2    9.2    9.0    80    5.9   9.0   ENE   0.75  15.0   ENE    6.7    9.1    6.7  1024.0  0.00  0.00   0.032   0.000   19.9    46    7.9   18.9   8.65  .0752    118    1    100.0    5 
 3/12/16  10:05    9.3    9.3    9.2    79    5.8   8.0   ENE   0.67  15.0   ENE    7.2    9.2    7.1  1023.9  0.00  0.00   0.031   0.000   19.9    46    7.9   18.9   8.65  .0752    116    1    100.0    5 
 3/12/16  10:10    9.4    9.4    9.3    78    5.7   9.0   ENE   0.75  18.0   ENE    7.0    9.3    6.9  1023.9  0.00  0.00   0.031   0.000   19.9    46    7.9   18.9   8.65  .0752    116    1    100.0    5 
 3/12/16  10:15    9.4    9.4    9.4    77    5.6  11.0   ENE   0.92  21.0    NE    6.4    9.3    6.3  1023.9  0.00  0.00   0.031   0.000   19.9    46    8.0   19.0   8.65  .0752    117    1    100.0    5 
 3/12/16  10:20    9.4    9.4    9.3    76    5.4  10.0   ENE   0.83  21.0    NE    6.7    9.2    6.5  1023.9  0.00  0.00   0.031   0.000   19.9    46    8.0   19.0   8.65  .0752    116    1    100.0    5 
 3/12/16  10:25    9.5    9.5    9.4    75    5.3  10.0   ENE   0.83  18.0    NE    6.8    9.3    6.6  1023.8  0.00  0.00   0.031   0.000   19.9    46    8.0   19.0   8.65  .0752    117    1    100.0    5 
 3/12/16  10:30    9.6    9.6    9.6    75    5.3  11.0   ENE   0.92  20.0    NE    6.6    9.4    6.4  1023.8  0.00  0.00   0.030   0.000   19.9    46    8.0   19.0   8.65  .0752    117    1    100.0    5 
 3/12/16  10:35    9.7    9.7    9.6    76    5.7   7.0   ENE   0.58  12.0     E    8.1    9.6    8.0  1023.8  0.00  0.00   0.030   0.000   19.9    46    8.0   19.0   8.65  .0752    117    1    100.0    5 
 3/12/16  10:40    9.9    9.9    9.7    75    5.7  10.0   ENE   0.83  16.0   ENE    7.3    9.8    7.2  1023.7  0.00  0.00   0.029   0.000   20.0    46    8.0   19.1   8.65  .0752    117    1    100.0    5 
 3/12/16  10:45    9.8    9.9    9.8    74    5.4   8.0   ENE   0.67  15.0    NE    7.8    9.7    7.7  1023.7  0.00  0.00   0.030   0.000   20.0    46    8.0   19.1   8.65  .0752    117    1    100.0    5 
 3/12/16  10:50    9.8    9.8    9.8    74    5.4  10.0   ENE   0.83  18.0    NE    7.2    9.7    7.0  1023.6  0.00  0.00   0.030   0.000   20.1    46    8.1   19.1   8.65  .0752    117    1    100.0    5 
 3/12/16  10:55    9.8    9.8    9.8    74    5.4  11.0   ENE   0.92  18.0     E    6.9    9.7    6.7  1023.5  0.00  0.00   0.030   0.000   20.1    46    8.1   19.1   8.65  .0752    116    1    100.0    5 
 3/12/16  11:00    9.9    9.9    9.8    74    5.5  10.0   ENE   0.83  18.0   ENE    7.3    9.7    7.1  1023.5  0.00  0.00   0.029   0.000   20.1    46    8.1   19.2   8.65  .0751    117    1    100.0    5 
 3/12/16  11:05    9.8    9.9    9.8    74    5.4  12.0   ENE   1.00  23.0     E    6.7    9.7    6.5  1023.6  0.00  0.00   0.030   0.000   20.1    46    8.1   19.2   8.65  .0751    117    1    100.0    5 
 3/12/16  11:10    9.9    9.9    9.8    74    5.5  11.0   ENE   0.92  20.0   ENE    7.0    9.7    6.8  1023.4  0.00  0.00   0.029   0.000   20.1    46    8.1   19.2   8.65  .0751    117    1    100.0    5 
 3/12/16  11:15   10.1   10.1    9.9    74    5.6  10.0   ENE   0.83  18.0   ENE    7.4    9.9    7.3  1023.4  0.00  0.00   0.029   0.000   20.1    46    8.1   19.2   8.65  .0751    117    1    100.0    5 
 3/12/16  11:20    9.9   10.1    9.9    73    5.3  11.0   ENE   0.92  17.0   ENE    7.1    9.8    6.9  1023.3  0.00  0.00   0.029   0.000   20.2    46    8.2   19.2   8.65  .0751    117    1    100.0    5 
 3/12/16  11:25    9.8    9.9    9.7    73    5.2  11.0     E   0.92  17.0     E    6.8    9.6    6.7  1023.3  0.00  0.00   0.030   0.000   20.1    46    8.1   19.2   8.65  .0751    117    1    100.0    5 
 3/12/16  11:30    9.8    9.9    9.7    73    5.2   9.0   ENE   0.75  15.0   ENE    7.5    9.7    7.3  1023.2  0.00  0.00   0.030   0.000   20.1    46    8.1   19.2   8.65  .0751    117    1    100.0    5 
 3/12/16  11:35    9.7    9.9    9.7    71    4.7  11.0   ENE   0.92  20.0   ENE    6.8    9.5    6.6  1023.2  0.00  0.00   0.030   0.000   20.1    46    8.1   19.2   8.65  .0751    117    1    100.0    5 
 3/12/16  11:40    9.3    9.7    9.3    71    4.3  10.0   ENE   0.83  19.0   ENE    6.6    9.1    6.4  1023.2  0.00  0.00   0.031   0.000   20.1    46    8.1   19.2   8.65  .0751    116    1    100.0    5 
 3/12/16  11:45    9.1    9.3    9.1    72    4.3   9.0   ENE   0.75  18.0   ENE    6.6    8.8    6.4  1023.2  0.00  0.00   0.032   0.000   20.1    46    8.1   19.2   8.65  .0751    117    1    100.0    5 
 3/12/16  11:50    8.8    9.1    8.8    72    4.0   9.0    NE   0.75  18.0   ENE    6.3    8.6    6.1  1023.2  0.00  0.00   0.033   0.000   20.1    46    8.1   19.2   8.65  .0751    117    1    100.0    5 
 3/12/16  11:55    8.6    8.8    8.6    73    4.0   9.0   ENE   0.75  17.0   ENE    6.1    8.4    5.8  1023.2  0.00  0.00   0.034   0.000   20.1    46    8.1   19.1   8.65  .0751    117    1    100.0    5 
 3/12/16  12:00    8.4    8.6    8.4    73    3.9  11.0   ENE   0.92  18.0   ENE    5.3    8.2    5.1  1023.2  0.00  0.00   0.034   0.000   20.1    46    8.1   19.1   8.65  .0751    116    1    100.0    5 
 3/12/16  12:05    8.6    8.6    8.4    74    4.2  10.0   ENE   0.83  18.0   ENE    5.8    8.4    5.6  1023.2  0.00  0.00   0.034   0.000   20.0    46    8.0   19.1   8.65  .0752    116    1    100.0    5 
 3/12/16  12:10    8.9    8.9    8.6    74    4.6  10.0   ENE   0.83  18.0   ENE    6.2    8.8    6.0  1023.2  0.00  0.00   0.033   0.000   20.0    46    8.0   19.1   8.65  .0752    116    1    100.0    5 
 3/12/16  12:15    9.0    9.1    8.9    71    4.0  12.0   ENE   1.00  23.0     E    5.7    8.8    5.4  1023.2  0.00  0.00   0.032   0.000   20.0    46    8.0   19.1   8.65  .0752    117    1    100.0    5 
 3/12/16  12:20    8.9    9.0    8.9    71    4.0  12.0   ENE   1.00  21.0     E    5.6    8.7    5.3  1023.1  0.00  0.00   0.033   0.000   20.0    46    8.0   19.1   8.65  .0751    117    1    100.0    5 
 3/12/16  12:25    9.0    9.0    8.9    71    4.0  11.0     E   0.92  19.0   ENE    5.9    8.8    5.7  1023.2  0.00  0.00   0.032   0.000   20.0    46    8.0   19.1   8.65  .0751    117    1    100.0    5 
 3/12/16  12:30    8.9    9.0    8.9    71    3.9  12.0     E   1.00  24.0   ENE    5.6    8.6    5.3  1023.1  0.00  0.00   0.033   0.000   20.0    46    8.0   19.1   8.65  .0751    117    1    100.0    5 
 3/12/16  12:35    8.7    8.9    8.7    71    3.8  13.0     E   1.08  27.0   ENE    5.2    8.4    4.9  1023.0  0.00  0.00   0.033   0.000   20.0    45    7.7   19.0   8.49  .0752    117    1    100.0    5 
 3/12/16  12:40    8.5    8.7    8.5    71    3.5  13.0   ENE   1.08  21.0     E    4.9    8.2    4.6  1023.0  0.00  0.00   0.034   0.000   19.9    45    7.6   18.9   8.49  .0752    115    1    100.0    5 
 3/12/16  12:45    8.3    8.4    8.3    71    3.3  11.0   ENE   0.92  19.0   ENE    5.1    8.0    4.8  1023.0  0.00  0.00   0.035   0.000   19.9    45    7.6   18.9   8.49  .0752    116    1    100.0    5 
 3/12/16  12:50    8.1    8.3    8.1    72    3.4  12.0     E   1.00  21.0     E    4.7    7.9    4.4  1022.9  0.00  0.00   0.035   0.000   19.9    45    7.6   18.9   8.49  .0752    117    1    100.0    5 
 3/12/16  12:55    7.9    8.1    7.9    71    3.0  14.0     E   1.17  25.0     E    4.1    7.7    3.8  1022.9  0.00  0.00   0.036   0.000   19.9    45    7.6   18.9   8.49  .0752    116    1    100.0    5 
 3/12/16  13:00    8.2    8.2    7.9    73    3.6  14.0     E   1.17  23.0   ENE    4.3    7.9    4.1  1022.9  0.00  0.00   0.035   0.000   19.9    45    7.6   18.9   8.49  .0752    117    1    100.0    5 
 3/12/16  13:05    8.7    8.7    8.2    71    3.7  15.0     E   1.25  25.0     E    4.7    8.4    4.4  1022.9  0.00  0.00   0.034   0.000   19.9    45    7.6   18.9   8.49  .0752    116    1    100.0    5 
 3/12/16  13:10    9.3    9.3    8.7    69    3.9  15.0     E   1.25  26.0     E    5.4    9.0    5.1  1022.9  0.00  0.00   0.031   0.000   19.8    45    7.5   18.8   8.50  .0752    118    1    100.0    5 
 3/12/16  13:15    9.6    9.6    9.3    68    3.9  16.0     E   1.33  21.0     E    5.5    9.3    5.2  1022.9  0.00  0.00   0.030   0.000   19.8    45    7.5   18.8   8.50  .0752    117    1    100.0    5 
 3/12/16  13:20    9.8    9.8    9.6    67    4.0  16.0     E   1.33  24.0   ENE    5.8    9.6    5.6  1022.8  0.00  0.00   0.030   0.000   19.8    45    7.5   18.8   8.50  .0752    117    1    100.0    5 
 3/12/16  13:25   10.2   10.2    9.8    67    4.3  14.0     E   1.17  23.0     E    6.6    9.9    6.3  1022.8  0.00  0.00   0.028   0.000   19.8    45    7.5   18.8   8.50  .0752    117    1    100.0    5 
 3/12/16  13:30   10.4   10.4   10.2    66    4.3  15.0     E   1.25  23.0     E    6.7   10.1    6.3  1022.7  0.00  0.00   0.028   0.000   19.8    45    7.5   18.8   8.50  .0752    117    1    100.0    5 
 3/12/16  13:35   10.6   10.6   10.4    66    4.5  14.0     E   1.17  22.0     E    7.1   10.2    6.7  1022.7  0.00  0.00   0.027   0.000   19.8    45    7.5   18.8   8.50  .0752    116    1    100.0    5 
 3/12/16  13:40   10.7   10.7   10.6    65    4.4  13.0     E   1.08  21.0   ENE    7.3   10.3    6.9  1022.7  0.00  0.00   0.027   0.000   19.8    45    7.5   18.8   8.50  .0752    117    1    100.0    5 
 3/12/16  13:45   10.8   10.8   10.7    65    4.5  12.0     E   1.00  21.0     E    7.7   10.4    7.3  1022.8  0.00  0.00   0.026   0.000   19.8    45    7.5   18.8   8.50  .0752    117    1    100.0    5 
 3/12/16  13:50   10.8   10.9   10.8    63    4.1   9.0   ENE   0.75  17.0    NE    8.7   10.4    8.3  1022.7  0.00  0.00   0.026   0.000   19.8    45    7.5   18.8   8.50  .0752    117    1    100.0    5 
 3/12/16  13:55   10.6   10.8   10.6    61    3.4  13.0   ENE   1.08  25.0     E    7.3   10.1    6.8  1022.7  0.00  0.00   0.027   0.000   19.8    45    7.5   18.8   8.50  .0752    117    1    100.0    5 
 3/12/16  14:00   10.3   10.6   10.3    61    3.1  12.0   ENE   1.00  18.0   ENE    7.2    9.9    6.8  1022.7  0.00  0.00   0.028   0.000   19.8    45    7.5   18.8   8.50  .0752    117    1    100.0    5 
 3/12/16  14:05   10.3   10.3   10.3    61    3.1  10.0   ENE   0.83  21.0     E    7.7    9.8    7.3  1022.7  0.00  0.00   0.028   0.000   19.8    45    7.5   18.8   8.50  .0752    117    1    100.0    5 
 3/12/16  14:10   10.2   10.3   10.2    60    2.7  13.0   ENE   1.08  23.0   ENE    6.8    9.7    6.3  1022.7  0.00  0.00   0.028   0.000   19.8    45    7.5   18.8   8.50  .0752    117    1    100.0    5 
 3/12/16  14:15   10.1   10.2   10.1    61    2.9  10.0   ENE   0.83  22.0   ENE    7.5    9.7    7.1  1022.7  0.00  0.00   0.029   0.000   19.8    45    7.5   18.8   8.50  .0752    118    1    100.0    5 
 3/12/16  14:20   10.2   10.2   10.1    62    3.2  11.0   ENE   0.92  20.0   ENE    7.3    9.8    6.9  1022.7  0.00  0.00   0.028   0.000   19.8    45    7.5   18.8   8.50  .0752    115    1    100.0    5 
 3/12/16  14:25   10.1   10.2   10.1    61    2.9  12.0   ENE   1.00  21.0   ESE    6.9    9.6    6.4  1022.7  0.00  0.00   0.029   0.000   19.8    45    7.5   18.8   8.50  .0752    117    1    100.0    5 
 3/12/16  14:30    9.8   10.0    9.8    60    2.4  12.0   ENE   1.00  24.0    NE    6.6    9.3    6.2  1022.6  0.00  0.00   0.030   0.000   19.8    45    7.5   18.8   8.50  .0752    117    1    100.0    5 
 3/12/16  14:35    9.7    9.8    9.7    61    2.5  11.0   ENE   0.92  18.0   ENE    6.7    9.2    6.3  1022.6  0.00  0.00   0.030   0.000   19.8    45    7.5   18.8   8.50  .0752    116    1    100.0    5 
 3/12/16  14:40    9.7    9.7    9.7    62    2.7  11.0     E   0.92  16.0   ENE    6.7    9.3    6.3  1022.7  0.00  0.00   0.030   0.000   19.8    45    7.5   18.8   8.50  .0752    117    1    100.0    5 
 3/12/16  14:45    9.3    9.7    9.3    62    2.4  11.0   ENE   0.92  22.0   ENE    6.3    8.9    5.9  1022.6  0.00  0.00   0.031   0.000   19.8    45    7.5   18.8   8.50  .0752    117    1    100.0    5 
 3/12/16  14:50    9.1    9.3    9.1    63    2.4  11.0   ENE   0.92  22.0   ENE    6.0    8.7    5.6  1022.6  0.00  0.00   0.032   0.000   19.8    45    7.5   18.8   8.50  .0752    117    1    100.0    5 
 3/12/16  14:55    8.8    9.1    8.8    64    2.3   8.0   ENE   0.67  17.0    NE    6.6    8.4    6.2  1022.6  0.00  0.00   0.033   0.000   19.8    45    7.5   18.8   8.50  .0752    117    1    100.0    5 
 3/12/16  15:00    8.4    8.8    8.4    65    2.2  10.0    NE   0.83  18.0   ENE    5.5    8.0    5.1  1022.6  0.00  0.00   0.035   0.000   19.7    45    7.4   18.7   8.50  .0752    116    1    100.0    5 
 3/12/16  15:05    7.9    8.4    7.9    67    2.1  12.0   ENE   1.00  21.0   ENE    4.4    7.6    4.1  1022.6  0.00  0.00   0.036   0.000   19.7    45    7.4   18.7   8.50  .0752    116    1    100.0    5 
 3/12/16  15:10    7.6    7.9    7.6    68    2.1  10.0    NE   0.83  16.0     E    4.6    7.3    4.3  1022.6  0.00  0.00   0.037   0.000   19.7    45    7.4   18.6   8.50  .0752    116    1    100.0    5 
 3/12/16  15:15    7.4    7.6    7.4    69    2.1  12.0   ENE   1.00  19.0     E    3.8    7.1    3.6  1022.6  0.00  0.00   0.038   0.000   19.7    45    7.4   18.6   8.50  .0752    116    1    100.0    5 
 3/12/16  15:20    7.2    7.4    7.2    70    2.1  12.0   ENE   1.00  23.0   ENE    3.7    6.9    3.4  1022.5  0.00  0.00   0.039   0.000   19.7    45    7.4   18.7   8.50  .0752    116    1    100.0    5 
 3/12/16  15:25    7.1    7.2    7.1    70    2.0  13.0    NE   1.08  25.0     E    3.2    6.8    2.9  1022.5  0.00  0.00   0.039   0.000   19.7    45    7.4   18.6   8.50  .0752    116    1    100.0    5 
 3/12/16  15:30    6.9    7.1    6.9    71    2.0   9.0   ENE   0.75  15.0   ENE    4.1    6.7    3.8  1022.6  0.00  0.00   0.040   0.000   19.7    45    7.4   18.6   8.50  .0752    116    1    100.0    5 
 3/12/16  15:35    6.9    6.9    6.9    72    2.2  11.0   ENE   0.92  20.0   ENE    3.5    6.6    3.2  1022.6  0.00  0.00   0.040   0.000   19.7    45    7.4   18.6   8.50  .0752    117    1    100.0    5 
 3/12/16  15:40    6.8    6.9    6.8    72    2.1  11.0   ENE   0.92  20.0   ENE    3.3    6.5    3.1  1022.5  0.00  0.00   0.040   0.000   19.7    45    7.4   18.6   8.50  .0752    117    1    100.0    5 
 3/12/16  15:45    6.7    6.8    6.7    72    2.0  10.0   ENE   0.83  19.0   ENE    3.6    6.4    3.3  1022.6  0.00  0.00   0.040   0.000   19.6    45    7.3   18.6   8.50  .0752    117    1    100.0    5 
 3/12/16  15:50    6.6    6.7    6.6    73    2.1  11.0   ENE   0.92  18.0   ENE    3.2    6.4    2.9  1022.6  0.00  0.00   0.041   0.000   19.6    45    7.3   18.6   8.50  .0752    117    1    100.0    5 
 3/12/16  15:55    6.5    6.6    6.5    73    2.0  10.0    NE   0.83  16.0   ENE    3.3    6.2    3.0  1022.7  0.00  0.00   0.041   0.000   19.6    45    7.3   18.6   8.50  .0752    117    1    100.0    5 
 3/12/16  16:00    6.4    6.5    6.4    73    1.9  10.0    NE   0.83  16.0    NE    3.2    6.1    2.9  1022.7  0.00  0.00   0.041   0.000   19.6    45    7.3   18.6   8.50  .0752    117    1    100.0    5 
 3/12/16  16:05    6.3    6.4    6.3    73    1.8   5.0    NE   0.42  11.0   ENE    4.7    6.0    4.4  1022.7  0.00  0.00   0.042   0.000   19.6    45    7.3   18.6   8.50  .0752    117    1    100.0    5 
 3/12/16  16:10    6.1    6.3    6.1    74    1.8   5.0    NE   0.42  12.0    NE    4.4    5.9    4.2  1022.7  0.00  0.00   0.042   0.000   19.6    45    7.3   18.6   8.50  .0753    117    1    100.0    5 
 3/12/16  16:15    5.9    6.1    5.9    74    1.7   5.0    NE   0.42  11.0    NE    4.2    5.7    4.0  1022.8  0.00  0.00   0.043   0.000   19.7    45    7.4   18.6   8.50  .0752    117    1    100.0    5 
 3/12/16  16:20    5.8    5.9    5.8    75    1.7   5.0    NE   0.42   9.0    NE    4.1    5.6    3.9  1022.7  0.00  0.00   0.043   0.000   19.7    46    7.7   18.7   8.65  .0752    118    1    100.0    5 
 3/12/16  16:25    5.7    5.8    5.7    75    1.6   5.0   ENE   0.42   9.0   ENE    4.0    5.5    3.8  1022.7  0.00  0.00   0.044   0.000   19.7    46    7.7   18.7   8.65  .0752    117    1    100.0    5 
 3/12/16  16:30    5.6    5.7    5.6    76    1.7   5.0    NE   0.42   9.0    NE    3.8    5.4    3.6  1022.8  0.00  0.00   0.044   0.000   19.7    46    7.8   18.8   8.65  .0752    114    1    100.0    5 
 3/12/16  16:35    5.6    5.6    5.6    76    1.7   5.0    NE   0.42   9.0   ENE    3.8    5.3    3.6  1022.8  0.00  0.00   0.044   0.000   19.8    46    7.8   18.8   8.65  .0752    115    1    100.0    5 
 3/12/16  16:40    5.4    5.6    5.4    76    1.5   5.0    NE   0.42  11.0    NE    3.7    5.2    3.4  1022.7  0.00  0.00   0.045   0.000   19.8    46    7.8   18.8   8.65  .0752    117    1    100.0    5 
 3/12/16  16:45    5.4    5.4    5.4    76    1.5   4.0    NE   0.33   9.0   NNE    4.1    5.2    3.8  1022.7  0.00  0.00   0.045   0.000   19.8    46    7.9   18.9   8.65  .0752    116    1    100.0    5 
 3/12/16  16:50    5.3    5.4    5.3    77    1.6   6.0    NE   0.50  12.0    NE    3.1    5.1    2.8  1022.7  0.00  0.00   0.045   0.000   19.9    46    7.9   18.9   8.65  .0751    116    1    100.0    5 
 3/12/16  16:55    5.2    5.3    5.2    77    1.5   5.0    NE   0.42  12.0   ENE    3.3    4.9    3.1  1022.7  0.00  0.00   0.046   0.000   19.9    46    8.0   19.0   8.65  .0751    116    1    100.0    5 
 3/12/16  17:00    5.1    5.2    5.1    77    1.4   5.0    NE   0.42  14.0   ENE    3.2    4.9    3.0  1022.7  0.00  0.00   0.046   0.000   19.9    46    8.0   19.0   8.65  .0751    117    1    100.0    5 
 3/12/16  17:05    5.1    5.1    5.1    77    1.4   5.0    NE   0.42   9.0   NNE    3.2    4.8    2.9  1022.7  0.00  0.00   0.046   0.000   20.0    46    8.0   19.1   8.65  .0751    117    1    100.0    5 
 3/12/16  17:10    5.0    5.1    5.0    78    1.5   6.0    NE   0.50  12.0    NE    2.7    4.8    2.6  1022.7  0.00  0.00   0.046   0.000   20.0    46    8.0   19.1   8.65  .0751    116    1    100.0    5 
 3/12/16  17:15    4.9    5.0    4.9    78    1.4   4.0    NE   0.33   9.0    NE    3.6    4.8    3.4  1022.7  0.00  0.00   0.046   0.000   20.1    46    8.1   19.1   8.65  .0751    116    1    100.0    5 
 3/12/16  17:20    4.9    4.9    4.9    78    1.4   5.0    NE   0.42  10.0    NE    3.0    4.7    2.8  1022.7  0.00  0.00   0.047   0.000   20.1    46    8.1   19.2   8.65  .0751    117    1    100.0    5 
 3/12/16  17:25    4.8    4.9    4.8    78    1.3   5.0    NE   0.42  13.0    NE    2.9    4.6    2.7  1022.7  0.00  0.00   0.047   0.000   20.2    46    8.2   19.2   8.65  .0751    118    1    100.0    5 
 3/12/16  17:30    4.8    4.8    4.8    78    1.3   6.0    NE   0.50  12.0    NE    2.5    4.6    2.3  1022.7  0.00  0.00   0.047   0.000   20.2    46    8.2   19.2   8.65  .0751    117    1    100.0    5 
 3/12/16  17:35    4.8    4.8    4.7    79    1.4   5.0    NE   0.42  11.0   NNE    2.9    4.6    2.7  1022.7  0.00  0.00   0.047   0.000   20.2    46    8.2   19.3   8.65  .0750    115    1    100.0    5 
 3/12/16  17:40    4.7    4.8    4.7    79    1.4   6.0    NE   0.50  11.0    NE    2.4    4.6    2.2  1022.6  0.00  0.00   0.047   0.000   20.3    46    8.3   19.3   8.65  .0750    115    1    100.0    5 
 3/12/16  17:45    4.7    4.7    4.7    79    1.3   7.0    NE   0.58  13.0    NE    2.0    4.5    1.8  1022.6  0.00  0.00   0.047   0.000   20.3    47    8.6   19.4   8.78  .0750    117    1    100.0    5 
 3/12/16  17:50    4.7    4.7    4.7    79    1.3   6.0    NE   0.50  10.0    NE    2.3    4.5    2.2  1022.5  0.00  0.00   0.047   0.000   20.3    47    8.6   19.4   8.78  .0750    117    1    100.0    5 
 3/12/16  17:55    4.7    4.7    4.7    79    1.3   6.0    NE   0.50  12.0    NE    2.3    4.5    2.2  1022.6  0.00  0.00   0.047   0.000   20.4    48    9.0   19.5   8.88  .0750    117    1    100.0    5 
 3/12/16  18:00    4.6    4.7    4.6    79    1.3   5.0    NE   0.42  13.0    NE    2.7    4.4    2.5  1022.7  0.00  0.00   0.048   0.000   20.4    48    9.1   19.6   8.87  .0749    117    1    100.0    5 
 3/12/16  18:05    4.6    4.6    4.6    79    1.2   6.0    NE   0.50  12.0    NE    2.2    4.4    2.1  1022.6  0.00  0.00   0.048   0.000   20.5    49    9.4   19.7   9.07  .0749    115    1    100.0    5 
 3/12/16  18:10    4.6    4.6    4.6    80    1.4   6.0    NE   0.50  11.0    NE    2.2    4.4    2.1  1022.6  0.00  0.00   0.048   0.000   20.6    50    9.8   19.8   9.27  .0749    117    1    100.0    5 
 3/12/16  18:15    4.6    4.6    4.5    80    1.4   7.0    NE   0.58  15.0    NE    1.8    4.4    1.7  1022.7  0.00  0.00   0.048   0.000   20.6    50    9.8   19.8   9.27  .0749    115    1    100.0    5 
 3/12/16  18:20    4.6    4.6    4.6    80    1.4   7.0    NE   0.58  15.0    NE    1.8    4.4    1.7  1022.6  0.00  0.00   0.048   0.000   20.7    50    9.9   19.8   9.27  .0748    116    1    100.0    5 
 3/12/16  18:25    4.6    4.6    4.6    80    1.4   7.0    NE   0.58  14.0    NE    1.8    4.4    1.7  1022.6  0.00  0.00   0.048   0.000   20.7    50    9.9   19.9   9.26  .0748    116    1    100.0    5 
 3/12/16  18:30    4.6    4.6    4.6    80    1.4   7.0    NE   0.58  15.0    NE    1.8    4.4    1.7  1022.6  0.00  0.00   0.048   0.000   20.8    51   10.3   20.0   9.46  .0748    117    1    100.0    5 
 3/12/16  18:35    4.6    4.6    4.5    80    1.4   8.0    NE   0.67  17.0    NE    1.6    4.4    1.4  1022.6  0.00  0.00   0.048   0.000   20.9    54   11.2   20.2   9.97  .0747    116    1    100.0    5 
 3/12/16  18:40    4.6    4.6    4.5    80    1.4   8.0    NE   0.67  15.0   ENE    1.6    4.4    1.4  1022.6  0.00  0.00   0.048   0.000   20.9    53   11.0   20.2   9.86  .0747    116    1    100.0    5 
 3/12/16  18:45    4.6    4.6    4.6    80    1.4   8.0    NE   0.67  14.0   NNE    1.6    4.4    1.4  1022.6  0.00  0.00   0.048   0.000   21.0    53   11.1   20.2   9.85  .0747    116    1    100.0    5 
 3/12/16  18:50    4.5    4.6    4.5    80    1.3   8.0    NE   0.67  14.0    NE    1.5    4.3    1.3  1022.7  0.00  0.00   0.048   0.000   21.1    52   10.8   20.2   9.65  .0747    116    1    100.0    5 
 3/12/16  18:55    4.5    4.5    4.5    80    1.3   9.0    NE   0.75  15.0    NE    1.2    4.3    1.1  1022.6  0.00  0.00   0.048   0.000   21.1    52   10.9   20.3   9.65  .0747    117    1    100.0    5 
 3/12/16  19:00    4.5    4.5    4.4    80    1.3   9.0    NE   0.75  14.0    NE    1.2    4.3    1.1  1022.6  0.00  0.00   0.048   0.000   21.1    51   10.6   20.2   9.45  .0747    117    1    100.0    5 
 3/12/16  19:05    4.5    4.5    4.4    80    1.3   7.0    NE   0.58  15.0    NE    1.8    4.3    1.6  1022.6  0.00  0.00   0.048   0.000   21.2    51   10.6   20.3   9.45  .0747    116    1    100.0    5 
 3/12/16  19:10    4.4    4.5    4.4    80    1.3   9.0    NE   0.75  16.0   ENE    1.2    4.3    1.0  1022.5  0.00  0.00   0.048   0.000   21.2    51   10.6   20.3   9.45  .0747    116    1    100.0    5 
 3/12/16  19:15    4.4    4.4    4.4    80    1.3   8.0    NE   0.67  15.0   ENE    1.4    4.3    1.3  1022.5  0.00  0.00   0.048   0.000   21.2    50   10.3   20.2   9.25  .0747    116    1    100.0    5 
 3/12/16  19:20    4.4    4.4    4.4    80    1.2   8.0    NE   0.67  14.0   ENE    1.4    4.2    1.2  1022.6  0.00  0.00   0.048   0.000   21.2    50   10.4   20.3   9.25  .0747    117    1    100.0    5 
 3/12/16  19:25    4.4    4.4    4.4    80    1.2   7.0    NE   0.58  15.0    NE    1.7    4.2    1.5  1022.5  0.00  0.00   0.048   0.000   21.3    50   10.4   20.4   9.25  .0746    115    1    100.0    5 
 3/12/16  19:30    4.4    4.4    4.3    80    1.2   9.0    NE   0.75  15.0    NE    1.1    4.2    0.9  1022.5  0.00  0.00   0.048   0.000   21.3    50   10.4   20.4   9.25  .0746    116    1    100.0    5 
 3/12/16  19:35    4.4    4.4    4.4    80    1.2   9.0    NE   0.75  16.0    NE    1.1    4.2    0.9  1022.6  0.00  0.00   0.048   0.000   21.3    50   10.4   20.4   9.25  .0746    117    1    100.0    5 
 3/12/16  19:40    4.4    4.4    4.4    80    1.2   8.0    NE   0.67  14.0   ENE    1.4    4.2    1.2  1022.6  0.00  0.00   0.048   0.000   21.3    50   10.4   20.4   9.25  .0746    117    1    100.0    5 
 3/12/16  19:45    4.4    4.4    4.4    80    1.2   9.0    NE   0.75  16.0    NE    1.1    4.2    0.9  1022.7  0.00  0.00   0.048   0.000   21.3    50   10.5   20.4   9.25  .0746    117    1    100.0    5 
 3/12/16  19:50    4.4    4.4    4.4    80    1.3   9.0    NE   0.75  16.0   ENE    1.2    4.3    1.0  1022.7  0.00  0.00   0.048   0.000   21.4    50   10.5   20.5   9.25  .0746    117    1    100.0    5 
 3/12/16  19:55    4.4    4.4    4.4    80    1.3   9.0    NE   0.75  17.0   ENE    1.2    4.3    1.0  1022.7  0.00  0.00   0.048   0.000   21.4    49   10.2   20.5   9.05  .0746    116    1    100.0    5 
 3/12/16  20:00    4.4    4.4    4.4    80    1.3   8.0    NE   0.67  16.0    NE    1.4    4.3    1.3  1022.7  0.00  0.00   0.048   0.000   21.4    49   10.2   20.5   9.05  .0746    116    1    100.0    5 
 3/12/16  20:05    4.4    4.4    4.4    80    1.3   7.0    NE   0.58  15.0    NE    1.7    4.3    1.6  1022.7  0.00  0.00   0.048   0.000   21.4    49   10.3   20.6   9.05  .0746    116    1    100.0    5 
 3/12/16  20:10    4.4    4.4    4.4    80    1.3   9.0    NE   0.75  15.0    NE    1.2    4.3    1.0  1022.7  0.00  0.00   0.048   0.000   21.4    49   10.3   20.6   9.05  .0746    115    1    100.0    5 
 3/12/16  20:15    4.4    4.4    4.4    80    1.3   9.0    NE   0.75  15.0    NE    1.2    4.3    1.0  1022.7  0.00  0.00   0.048   0.000   21.4    49   10.3   20.6   9.05  .0746    117    1    100.0    5 
 3/12/16  20:20    4.4    4.4    4.4    80    1.3   8.0   ENE   0.67  17.0   ENE    1.4    4.3    1.3  1022.8  0.00  0.00   0.048   0.000   21.5    49   10.3   20.6   9.05  .0746    116    1    100.0    5 
 3/12/16  20:25    4.5    4.5    4.4    80    1.3   9.0   ENE   0.75  19.0   ENE    1.2    4.3    1.1  1022.8  0.00  0.00   0.048   0.000   21.6    49   10.4   20.7   9.05  .0746    116    1    100.0    5 
 3/12/16  20:30    4.6    4.6    4.5    80    1.4   9.0   ENE   0.75  17.0     E    1.3    4.4    1.1  1022.9  0.00  0.00   0.048   0.000   21.5    49   10.3   20.6   9.05  .0746    116    1    100.0    5 
 3/12/16  20:35    4.6    4.6    4.6    80    1.4   8.0    NE   0.67  18.0   ENE    1.6    4.4    1.4  1022.8  0.00  0.00   0.048   0.000   21.6    49   10.4   20.7   9.05  .0746    116    1    100.0    5 
 3/12/16  20:40    4.6    4.6    4.6    79    1.3  10.0   ENE   0.83  20.0   ENE    1.1    4.4    0.9  1022.8  0.00  0.00   0.048   0.000   21.6    48   10.1   20.6   8.87  .0746    118    1    100.0    5 
 3/12/16  20:45    4.7    4.7    4.6    79    1.3   9.0    NE   0.75  20.0   ENE    1.4    4.5    1.3  1022.8  0.00  0.00   0.047   0.000   21.6    48   10.1   20.7   8.87  .0746    117    1    100.0    5 
 3/12/16  20:50    4.7    4.7    4.7    79    1.4  10.0    NE   0.83  19.0   ENE    1.2    4.6    1.1  1022.7  0.00  0.00   0.047   0.000   21.6    48   10.1   20.7   8.87  .0746    116    1    100.0    5 
 3/12/16  20:55    4.7    4.8    4.7    79    1.4  10.0   ENE   0.83  21.0   ENE    1.2    4.6    1.1  1022.7  0.00  0.00   0.047   0.000   21.7    48   10.2   20.8   8.87  .0746    117    1    100.0    5 
 3/12/16  21:00    4.8    4.8    4.7    79    1.4  11.0    NE   0.92  21.0   ENE    1.1    4.6    0.9  1022.7  0.00  0.00   0.047   0.000   21.7    48   10.2   20.8   8.87  .0746    116    1    100.0    5 
 3/12/16  21:05    4.8    4.8    4.8    79    1.4   9.0    NE   0.75  19.0   ENE    1.6    4.6    1.4  1022.7  0.00  0.00   0.047   0.000   21.7    48   10.2   20.8   8.87  .0746    117    1    100.0    5 
 3/12/16  21:10    4.8    4.8    4.8    79    1.4  10.0   ENE   0.83  22.0    NE    1.3    4.6    1.1  1022.7  0.00  0.00   0.047   0.000   21.7    48   10.2   20.9   8.87  .0745    117    1    100.0    5 
 3/12/16  21:15    4.8    4.8    4.8    79    1.4   9.0    NE   0.75  16.0   ENE    1.6    4.6    1.4  1022.6  0.00  0.00   0.047   0.000   21.7    48   10.2   20.9   8.87  .0745    116    1    100.0    5 
 3/12/16  21:20    4.8    4.8    4.7    79    1.4   9.0   ENE   0.75  16.0   ENE    1.6    4.6    1.4  1022.5  0.00  0.00   0.047   0.000   21.7    48   10.2   20.9   8.87  .0745    114    1    100.0    5 
 3/12/16  21:25    4.7    4.8    4.7    79    1.4  10.0    NE   0.83  16.0   ENE    1.2    4.6    1.1  1022.6  0.00  0.00   0.047   0.000   21.8    48   10.3   20.9   8.87  .0745    117    1    100.0    5 
 3/12/16  21:30    4.7    4.7    4.7    79    1.4   9.0    NE   0.75  17.0   ENE    1.5    4.6    1.3  1022.6  0.00  0.00   0.047   0.000   21.8    48   10.3   20.9   8.87  .0745    116    1    100.0    5 
 3/12/16  21:35    4.7    4.7    4.7    79    1.3   9.0    NE   0.75  18.0   ENE    1.4    4.5    1.3  1022.5  0.00  0.00   0.047   0.000   21.8    48   10.3   21.1   8.88  .0745    117    1    100.0    5 
 3/12/16  21:40    4.7    4.7    4.7    79    1.3   9.0    NE   0.75  18.0     E    1.4    4.5    1.3  1022.5  0.00  0.00   0.047   0.000   21.8    48   10.3   21.1   8.88  .0745    116    1    100.0    5 
 3/12/16  21:45    4.6    4.7    4.6    79    1.3   8.0    NE   0.67  16.0    NE    1.7    4.4    1.5  1022.4  0.00  0.00   0.048   0.000   21.9    47   10.1   21.1   8.75  .0745    117    1    100.0    5 
 3/12/16  21:50    4.6    4.6    4.6    79    1.3   9.0   ENE   0.75  16.0     E    1.4    4.4    1.2  1022.4  0.00  0.00   0.048   0.000   21.9    47   10.1   21.1   8.75  .0745    117    1    100.0    5 
 3/12/16  21:55    4.6    4.6    4.6    79    1.3   7.0    NE   0.58  13.0    NE    1.9    4.4    1.8  1022.3  0.00  0.00   0.048   0.000   21.9    47   10.1   21.1   8.75  .0745    116    1    100.0    5 
 3/12/16  22:00    4.6    4.6    4.6    79    1.2   9.0    NE   0.75  15.0    NE    1.3    4.4    1.1  1022.3  0.00  0.00   0.048   0.000   21.9    47   10.1   21.1   8.75  .0745    117    1    100.0    5 
 3/12/16  22:05    4.5    4.6    4.5    79    1.2   7.0    NE   0.58  14.0    NE    1.8    4.3    1.6  1022.3  0.00  0.00   0.048   0.000   21.9    47   10.1   21.1   8.75  .0745    117    1    100.0    5 
 3/12/16  22:10    4.5    4.5    4.4    79    1.2   8.0    NE   0.67  14.0   ENE    1.5    4.3    1.3  1022.3  0.00  0.00   0.048   0.000   22.0    47   10.2   21.2   8.75  .0745    117    1    100.0    5 
 3/12/16  22:15    4.4    4.5    4.4    79    1.1   7.0   ENE   0.58  13.0   ENE    1.7    4.3    1.6  1022.3  0.00  0.00   0.048   0.000   22.0    47   10.2   21.2   8.75  .0745    116    1    100.0    5 
 3/12/16  22:20    4.4    4.4    4.4    79    1.1   8.0    NE   0.67  17.0   ENE    1.4    4.2    1.2  1022.4  0.00  0.00   0.048   0.000   22.0    47   10.2   21.2   8.75  .0745    117    1    100.0    5 
 3/12/16  22:25    4.3    4.4    4.3    79    1.0   7.0   ENE   0.58  15.0   ENE    1.6    4.2    1.4  1022.4  0.00  0.00   0.049   0.000   22.1    47   10.2   21.3   8.75  .0744    117    1    100.0    5 
 3/12/16  22:30    4.3    4.3    4.3    79    1.0   9.0   ENE   0.75  16.0   ENE    0.9    4.1    0.8  1022.3  0.00  0.00   0.049   0.000   22.1    47   10.2   21.3   8.75  .0744    117    1    100.0    5 
 3/12/16  22:35    4.3    4.3    4.3    79    1.0   8.0    NE   0.67  14.0   ENE    1.2    4.1    1.1  1022.3  0.00  0.00   0.049   0.000   22.1    47   10.3   21.4   8.75  .0744    117    1    100.0    5 
 3/12/16  22:40    4.3    4.3    4.2    79    1.0   9.0   ENE   0.75  16.0   ENE    0.9    4.1    0.8  1022.3  0.00  0.00   0.049   0.000   22.1    47   10.3   21.4   8.75  .0744    116    1    100.0    5 
 3/12/16  22:45    4.3    4.3    4.2    79    1.0   9.0    NE   0.75  16.0    NE    0.9    4.1    0.8  1022.3  0.00  0.00   0.049   0.000   22.1    47   10.3   21.4   8.75  .0744    117    1    100.0    5 
 3/12/16  22:50    4.2    4.3    4.2    79    0.9   8.0    NE   0.67  16.0   ENE    1.2    4.1    1.0  1022.3  0.00  0.00   0.049   0.000   22.2    47   10.3   21.4   8.75  .0744    118    1    100.0    5 
 3/12/16  22:55    4.2    4.2    4.2    79    0.9   9.0    NE   0.75  16.0   ENE    0.9    4.1    0.7  1022.3  0.00  0.00   0.049   0.000   22.2    47   10.4   21.6   8.75  .0744    117    1    100.0    5 
 3/12/16  23:00    4.2    4.2    4.2    79    0.8   7.0    NE   0.58  16.0   ENE    1.4    4.0    1.2  1022.3  0.00  0.00   0.049   0.000   22.2    47   10.4   21.6   8.75  .0744    117    1    100.0    5 
 3/12/16  23:05    4.1    4.2    4.1    79    0.8   8.0    NE   0.67  15.0    NE    1.1    3.9    0.9  1022.3  0.00  0.00   0.049   0.000   22.3    47   10.4   21.6   8.75  .0744    115    1    100.0    5 
 3/12/16  23:10    4.1    4.1    4.1    79    0.7   6.0   ENE   0.50  13.0    NE    1.6    3.9    1.4  1022.3  0.00  0.00   0.050   0.000   22.3    47   10.4   21.6   8.75  .0744    117    1    100.0    5 
 3/12/16  23:15    4.1    4.1    4.1    79    0.7   9.0   ENE   0.75  15.0    NE    0.7    3.9    0.5  1022.2  0.00  0.00   0.050   0.000   22.3    47   10.5   21.7   8.75  .0743    116    1    100.0    5 
 3/12/16  23:20    4.1    4.1    4.1    79    0.7   7.0    NE   0.58  15.0    NE    1.3    3.9    1.1  1022.2  0.00  0.00   0.050   0.000   22.3    47   10.5   21.7   8.75  .0743    117    1    100.0    5 
 3/12/16  23:25    4.0    4.1    4.0    79    0.7   7.0   ENE   0.58  15.0   ENE    1.2    3.8    1.1  1022.2  0.00  0.00   0.050   0.000   22.3    47   10.5   21.7   8.75  .0743    116    1    100.0    5 
 3/12/16  23:30    3.9    4.0    3.9    79    0.6   8.0   ENE   0.67  16.0   ENE    0.8    3.8    0.7  1022.2  0.00  0.00   0.050   0.000   22.3    47   10.5   21.7   8.75  .0743    117    1    100.0    5 
 3/12/16  23:35    3.9    3.9    3.9    79    0.6   8.0   ENE   0.67  16.0    NE    0.8    3.8    0.7  1022.2  0.00  0.00   0.050   0.000   22.3    47   10.5   21.7   8.75  .0743    115    1    100.0    5 
 3/12/16  23:40    3.9    3.9    3.9    79    0.6   8.0    NE   0.67  16.0   ENE    0.8    3.7    0.6  1022.2  0.00  0.00   0.050   0.000   22.3    47   10.5   21.7   8.75  .0743    116    1    100.0    5 
 3/12/16  23:45    3.9    3.9    3.9    79    0.6   7.0    NE   0.58  14.0    NE    1.1    3.7    0.9  1022.1  0.00  0.00   0.050   0.000   22.3    47   10.5   21.7   8.75  .0743    117    1    100.0    5 
 3/12/16  23:50    3.8    3.9    3.8    79    0.5   6.0    NE   0.50  13.0    NE    1.3    3.7    1.2  1022.2  0.00  0.00   0.050   0.000   22.3    47   10.5   21.7   8.75  .0743    117    1    100.0    5 
 3/12/16  23:55    3.8    3.8    3.8    80    0.6   9.0    NE   0.75  14.0   NNE    0.3    3.6    0.2  1022.0  0.00  0.00   0.051   0.000   22.3    47   10.5   21.7   8.75  .0743    117    1    100.0    5 
 4/12/16  00:00    3.8    3.8    3.8    80    0.6   8.0    NE   0.67  13.0   ENE    0.6    3.6    0.4  1021.9  0.00  0.00   0.051   0.000   22.3    47   10.5   21.7   8.75  .0743    117    1    100.0    5 
 4/12/16   0:05    3.7    3.8    3.7    80    0.6   7.0    NE   0.58  16.0   ENE    0.9    3.6    0.7  1022.0  0.00  0.00   0.051   0.000   22.3    47   10.5   21.7   8.75  .0743    115    1    100.0    5 
 4/12/16   0:10    3.7    3.8    3.7    80    0.6   9.0    NE   0.75  17.0   ENE    0.3    3.6    0.1  1021.9  0.00  0.00   0.051   0.000   22.3    47   10.5   21.7   8.75  .0743    115    1    100.0    5 
 4/12/16   0:15    3.7    3.7    3.7    80    0.6   8.0    NE   0.67  18.0   ENE    0.6    3.6    0.4  1022.0  0.00  0.00   0.051   0.000   22.3    47   10.5   21.7   8.75  .0743    117    1    100.0    5 
 4/12/16   0:20    3.7    3.7    3.7    80    0.6   8.0    NE   0.67  16.0   ENE    0.6    3.6    0.4  1021.9  0.00  0.00   0.051   0.000   22.3    47   10.5   21.7   8.75  .0743    118    1    100.0    5 
 4/12/16   0:25    3.7    3.7    3.7    80    0.6   7.0    NE   0.58  15.0   ENE    0.9    3.6    0.7  1021.9  0.00  0.00   0.051   0.000   22.3    47   10.5   21.7   8.75  .0743    117    1    100.0    5 
 4/12/16   0:30    3.7    3.7    3.7    80    0.5   9.0    NE   0.75  17.0   ENE    0.2    3.5    0.1  1021.9  0.00  0.00   0.051   0.000   22.3    47   10.5   21.7   8.75  .0743    116    1    100.0    5 
 4/12/16   0:35    3.7    3.7    3.7    80    0.5   8.0   ENE   0.67  14.0    NE    0.5    3.5    0.3  1022.0  0.00  0.00   0.051   0.000   22.3    47   10.4   21.6   8.75  .0743    117    1    100.0    5 
 4/12/16   0:40    3.7    3.7    3.6    80    0.5   7.0    NE   0.58  12.0   ENE    0.8    3.5    0.7  1021.9  0.00  0.00   0.051   0.000   22.3    47   10.4   21.6   8.75  .0743    115    1    100.0    5 
 4/12/16   0:45    3.6    3.6    3.6    80    0.5   7.0    NE   0.58  14.0   ESE    0.7    3.4    0.6  1021.9  0.00  0.00   0.051   0.000   22.3    47   10.4   21.6   8.75  .0743    116    1    100.0    5 
 4/12/16   0:50    3.6    3.6    3.6    79    0.3   7.0    NE   0.58  14.0   ENE    0.7    3.4    0.5  1022.0  0.00  0.00   0.051   0.000   22.3    47   10.4   21.6   8.75  .0743    117    1    100.0    5 
 4/12/16   0:55    3.5    3.6    3.5    80    0.4   8.0    NE   0.67  13.0    NE    0.3    3.3    0.1  1022.0  0.00  0.00   0.052   0.000   22.2    46   10.0   21.5   8.61  .0744    117    1    100.0    5 
 4/12/16   1:00    3.5    3.6    3.5    80    0.4   8.0    NE   0.67  15.0   ENE    0.3    3.3    0.1  1022.0  0.00  0.00   0.052   0.000   22.2    46   10.0   21.5   8.61  .0744    117    1    100.0    5 
 4/12/16   1:05    3.5    3.6    3.5    80    0.4   8.0    NE   0.67  15.0   ENE    0.3    3.3    0.1  1022.0  0.00  0.00   0.052   0.000   22.2    46   10.0   21.5   8.61  .0744    117    1    100.0    5 
 4/12/16   1:10    3.5    3.6    3.5    80    0.4   6.0    NE   0.50  14.0    NE    0.9    3.3    0.8  1022.0  0.00  0.00   0.052   0.000   22.2    46   10.0   21.5   8.61  .0744    115    1    100.0    5 
 4/12/16   1:15    3.4    3.5    3.4    80    0.3   8.0    NE   0.67  11.0     E    0.2    3.3    0.1  1022.0  0.00  0.00   0.052   0.000   22.2    46   10.0   21.4   8.61  .0744    117    1    100.0    5 
 4/12/16   1:20    3.4    3.4    3.4    80    0.3   6.0    NE   0.50  13.0   ENE    0.9    3.3    0.7  1022.0  0.00  0.00   0.052   0.000   22.2    46   10.0   21.4   8.61  .0744    117    1    100.0    5 
 4/12/16   1:25    3.4    3.4    3.4    80    0.3   6.0    NE   0.50  13.0    NE    0.9    3.3    0.7  1021.9  0.00  0.00   0.052   0.000   22.1    46    9.9   21.3   8.61  .0744    114    1    100.0    5 
 4/12/16   1:30    3.3    3.4    3.3    80    0.2   7.0    NE   0.58  12.0   ENE    0.4    3.2    0.2  1021.9  0.00  0.00   0.052   0.000   22.1    46    9.9   21.3   8.61  .0744    116    1    100.0    5 
 4/12/16   1:35    3.3    3.3    3.3    80    0.2   8.0    NE   0.67  14.0   ENE    0.0    3.1   -0.2  1021.8  0.00  0.00   0.052   0.000   22.1    46    9.9   21.2   8.62  .0744    117    1    100.0    5 
 4/12/16   1:40    3.3    3.3    3.3    80    0.2   7.0    NE   0.58  13.0    NE    0.3    3.1    0.2  1021.8  0.00  0.00   0.052   0.000   22.1    46    9.9   21.2   8.62  .0744    117    1    100.0    5 
 4/12/16   1:45    3.3    3.3    3.3    80    0.2   8.0    NE   0.67  14.0   ENE    0.0    3.1   -0.2  1021.8  0.00  0.00   0.052   0.000   22.1    46    9.9   21.2   8.62  .0744    117    1    100.0    5 
 4/12/16   1:50    3.3    3.3    3.2    80    0.2   8.0    NE   0.67  14.0   ENE    0.0    3.1   -0.2  1021.7  0.00  0.00   0.052   0.000   22.0    46    9.8   21.2   8.62  .0744    117    1    100.0    5 
 4/12/16   1:55    3.3    3.3    3.2    80    0.2   8.0    NE   0.67  14.0    NE    0.0    3.1   -0.2  1021.7  0.00  0.00   0.052   0.000   22.0    46    9.8   21.2   8.62  .0744    116    1    100.0    5 
 4/12/16   2:00    3.2    3.3    3.2    79   -0.1   8.0    NE   0.67  16.0   ENE   -0.1    3.1   -0.2  1021.7  0.00  0.00   0.052   0.000   22.0    46    9.8   21.2   8.62  .0744    115    1    100.0    5 
 4/12/16   2:05    3.2    3.2    3.2    79   -0.1   7.0    NE   0.58  13.0    NE    0.3    3.1    0.1  1021.8  0.00  0.00   0.052   0.000   21.9    46    9.8   21.1   8.62  .0745    116    1    100.0    5 
 4/12/16   2:10    3.2    3.2    3.2    79   -0.1   7.0    NE   0.58  17.0   ENE    0.3    3.1    0.1  1021.7  0.00  0.00   0.052   0.000   21.9    46    9.7   21.0   8.62  .0745    117    1    100.0    5 
 4/12/16   2:15    3.3    3.3    3.2    79   -0.0   7.0    NE   0.58  14.0    NE    0.3    3.1    0.2  1021.8  0.00  0.00   0.052   0.000   21.9    46    9.7   21.0   8.62  .0745    115    1    100.0    5 
 4/12/16   2:20    3.3    3.3    3.2    79   -0.0   9.0    NE   0.75  15.0   ENE   -0.3    3.1   -0.4  1021.9  0.00  0.00   0.052   0.000   21.9    46    9.7   21.0   8.62  .0745    117    1    100.0    5 
 4/12/16   2:25    3.3    3.3    3.3    79    0.0   7.0    NE   0.58  13.0    NE    0.4    3.2    0.2  1021.8  0.00  0.00   0.052   0.000   21.8    46    9.7   20.9   8.62  .0745    117    1    100.0    5 
 4/12/16   2:30    3.3    3.3    3.3    79    0.0   8.0    NE   0.67  13.0    NE    0.1    3.2   -0.1  1021.8  0.00  0.00   0.052   0.000   21.8    46    9.6   20.8   8.63  .0745    117    1    100.0    5 
 4/12/16   2:35    3.3    3.3    3.3    79    0.0   8.0    NE   0.67  14.0   ENE    0.1    3.2   -0.1  1021.8  0.00  0.00   0.052   0.000   21.8    46    9.6   20.8   8.63  .0745    117    1    100.0    5 
 4/12/16   2:40    3.3    3.3    3.3    78   -0.2   7.0    NE   0.58  12.0    NE    0.3    3.1    0.2  1021.8  0.00  0.00   0.052   0.000   21.7    45    9.3   20.7   8.45  .0745    116    1    100.0    5 
 4/12/16   2:45    3.3    3.3    3.3    78   -0.2   6.0    NE   0.50  13.0   ENE    0.7    3.1    0.6  1021.8  0.00  0.00   0.052   0.000   21.7    45    9.3   20.7   8.45  .0745    116    1    100.0    5 
 4/12/16   2:50    3.3    3.3    3.3    78   -0.2   6.0    NE   0.50  14.0   ENE    0.7    3.1    0.6  1021.8  0.00  0.00   0.052   0.000   21.7    45    9.3   20.7   8.45  .0745    117    1    100.0    5 
 4/12/16   2:55    3.2    3.3    3.2    78   -0.2   5.0    NE   0.42  12.0   ENE    1.1    3.1    0.9  1021.8  0.00  0.00   0.052   0.000   21.7    45    9.2   20.6   8.45  .0746    117    1    100.0    5 
 4/12/16   3:00    3.2    3.2    3.2    78   -0.2   6.0    NE   0.50  11.0    NE    0.6    3.1    0.4  1021.8  0.00  0.00   0.052   0.000   21.7    45    9.2   20.6   8.45  .0746    115    1    100.0    5 
 4/12/16   3:05    3.2    3.2    3.2    78   -0.3   6.0    NE   0.50  10.0    NE    0.6    3.0    0.4  1021.8  0.00  0.00   0.053   0.000   21.6    45    9.2   20.6   8.45  .0746    116    1    100.0    5 
 4/12/16   3:10    3.2    3.2    3.1    78   -0.3   7.0    NE   0.58  13.0    NE    0.2    3.0    0.1  1021.7  0.00  0.00   0.053   0.000   21.6    45    9.1   20.4   8.45  .0746    116    1    100.0    5 
 4/12/16   3:15    3.1    3.2    3.1    78   -0.4   6.0    NE   0.50  14.0    NE    0.5    2.9    0.3  1021.6  0.00  0.00   0.053   0.000   21.6    45    9.1   20.4   8.45  .0746    116    1    100.0    5 
 4/12/16   3:20    3.1    3.1    3.1    78   -0.4   6.0    NE   0.50  14.0    NE    0.5    2.9    0.3  1021.6  0.00  0.00   0.053   0.000   21.5    45    9.1   20.4   8.45  .0746    116    1    100.0    5 
 4/12/16   3:25    3.1    3.1    3.1    78   -0.4   7.0    NE   0.58  12.0    NE    0.1    2.9   -0.1  1021.6  0.00  0.00   0.053   0.000   21.5    45    9.1   20.4   8.45  .0746    117    1    100.0    5 
 4/12/16   3:30    2.9    3.1    2.9    78   -0.5   4.0    NE   0.33  10.0   ENE    1.2    2.8    1.1  1021.7  0.00  0.00   0.053   0.000   21.4    45    9.0   20.3   8.45  .0746    118    1    100.0    5 
 4/12/16   3:35    2.9    3.0    2.9    78   -0.6   5.0    NE   0.42  10.0    NE    0.7    2.7    0.5  1021.7  0.00  0.00   0.054   0.000   21.4    45    9.0   20.2   8.45  .0746    117    1    100.0    5 
 4/12/16   3:40    2.8    2.9    2.8    78   -0.6   5.0    NE   0.42  12.0    NE    0.6    2.7    0.4  1021.7  0.00  0.00   0.054   0.000   21.4    45    9.0   20.2   8.45  .0746    116    1    100.0    5 
 4/12/16   3:45    2.8    2.8    2.8    78   -0.7   6.0    NE   0.50  12.0    NE    0.1    2.6   -0.1  1021.6  0.00  0.00   0.054   0.000   21.3    45    8.9   20.2   8.45  .0746    117    1    100.0    5 
 4/12/16   3:50    2.8    2.8    2.8    78   -0.7   6.0    NE   0.50  12.0    NE    0.1    2.6   -0.1  1021.6  0.00  0.00   0.054   0.000   21.3    45    8.9   20.2   8.45  .0746    116    1    100.0    5 
 4/12/16   3:55    2.7    2.8    2.7    78   -0.7   5.0    NE   0.42  10.0    NE    0.4    2.6    0.3  1021.7  0.00  0.00   0.054   0.000   21.3    45    8.9   20.2   8.45  .0747    117    1    100.0    5 
 4/12/16   4:00    2.7    2.8    2.7    78   -0.7   6.0    NE   0.50  12.0   ENE    0.1    2.6   -0.1  1021.7  0.00  0.00   0.054   0.000   21.3    45    8.9   20.1   8.45  .0747    117    1    100.0    5 
 4/12/16   4:05    2.7    2.7    2.7    78   -0.7   5.0    NE   0.42  13.0    NE    0.4    2.6    0.3  1021.8  0.00  0.00   0.054   0.000   21.3    45    8.9   20.1   8.45  .0747    117    1    100.0    5 
 4/12/16   4:10    2.7    2.7    2.7    78   -0.8   4.0    NE   0.33  10.0   ENE    0.9    2.5    0.7  1021.7  0.00  0.00   0.054   0.000   21.2    45    8.8   20.1   8.45  .0747    117    1    100.0    5 
 4/12/16   4:15    2.6    2.7    2.6    78   -0.8   5.0   NNE   0.42  11.0    NE    0.3    2.4    0.2  1021.8  0.00  0.00   0.055   0.000   21.2    44    8.4   19.9   8.35  .0747    117    1    100.0    5 
 4/12/16   4:20    2.6    2.6    2.6    79   -0.7   5.0   NNE   0.42  10.0    NE    0.3    2.4    0.1  1021.7  0.00  0.00   0.055   0.000   21.2    45    8.8   19.9   8.45  .0747    116    1    100.0    5 
 4/12/16   4:25    2.5    2.6    2.5    79   -0.8   6.0   NNE   0.50  10.0    NE   -0.2    2.3   -0.4  1021.7  0.00  0.00   0.055   0.000   21.1    45    8.7   19.9   8.45  .0747    117    1    100.0    5 
 4/12/16   4:30    2.4    2.5    2.4    79   -0.8   6.0   NNE   0.50  11.0    NE   -0.3    2.3   -0.4  1021.8  0.00  0.00   0.055   0.000   21.1    45    8.7   19.9   8.45  .0747    115    1    100.0    5 
 4/12/16   4:35    2.3    2.4    2.3    79   -0.9   7.0   NNE   0.58  11.0    NE   -0.8    2.2   -0.9  1021.8  0.00  0.00   0.056   0.000   21.1    45    8.7   19.8   8.45  .0747    117    1    100.0    5 
 4/12/16   4:40    2.3    2.3    2.3    79   -1.0   6.0   NNE   0.50  10.0   NNE   -0.5    2.1   -0.7  1021.8  0.00  0.00   0.056   0.000   21.0    45    8.6   19.8   8.45  .0748    117    1    100.0    5 
 4/12/16   4:45    2.2    2.3    2.2    79   -1.0   7.0   NNE   0.58  11.0   NNE   -0.9    2.1   -1.1  1021.7  0.00  0.00   0.056   0.000   21.0    44    8.3   19.8   8.35  .0748    116    1    100.0    5 
 4/12/16   4:50    2.2    2.2    2.2    80   -0.9   7.0   NNE   0.58  13.0    NE   -0.9    2.1   -1.1  1021.7  0.00  0.00   0.056   0.000   20.9    44    8.2   19.7   8.35  .0748    117    1    100.0    5 
 4/12/16   4:55    2.2    2.2    2.2    80   -0.9   7.0   NNE   0.58  13.0    NE   -1.0    2.0   -1.2  1021.7  0.00  0.00   0.056   0.000   20.9    44    8.2   19.7   8.35  .0748    117    1    100.0    5 
 4/12/16   5:00    2.2    2.2    2.2    80   -0.9   6.0    NE   0.50  11.0    NE   -0.6    2.0   -0.8  1021.7  0.00  0.00   0.056   0.000   20.9    44    8.2   19.7   8.35  .0748    117    1    100.0    5 
 4/12/16   5:05    2.2    2.2    2.2    80   -0.9   7.0   NNE   0.58  13.0   NNE   -1.0    2.0   -1.2  1021.7  0.00  0.00   0.056   0.000   20.8    44    8.1   19.7   8.35  .0748    116    1    100.0    5 
 4/12/16   5:10    2.2    2.2    2.2    80   -0.9   7.0    NE   0.58  12.0   ENE   -1.0    2.0   -1.2  1021.6  0.00  0.00   0.056   0.000   20.8    44    8.1   19.7   8.35  .0748    116    1    100.0    5 
 4/12/16   5:15    2.2    2.2    2.2    80   -0.9   8.0   NNE   0.67  14.0    NE   -1.3    2.0   -1.5  1021.7  0.00  0.00   0.056   0.000   20.8    44    8.1   19.6   8.35  .0748    115    1    100.0    5 
 4/12/16   5:20    2.2    2.2    2.2    80   -0.9   7.0   NNE   0.58  11.0   NNE   -1.0    2.0   -1.2  1021.7  0.00  0.00   0.056   0.000   20.8    44    8.1   19.6   8.35  .0748    116    1    100.0    5 
 4/12/16   5:25    2.2    2.2    2.2    80   -0.9   8.0   NNE   0.67  13.0    NE   -1.3    2.1   -1.4  1021.7  0.00  0.00   0.056   0.000   20.7    44    8.0   19.6   8.35  .0749    117    1    100.0    5 
 4/12/16   5:30    2.2    2.2    2.2    80   -0.9   7.0   NNE   0.58  14.0    NE   -1.0    2.0   -1.2  1021.7  0.00  0.00   0.056   0.000   20.7    44    8.0   19.5   8.35  .0749    117    1    100.0    5 
 4/12/16   5:35    2.2    2.2    2.2    81   -0.8   6.0   NNE   0.50  11.0    NE   -0.6    2.0   -0.8  1021.7  0.00  0.00   0.056   0.000   20.7    44    8.0   19.5   8.35  .0749    115    1    100.0    5 
 4/12/16   5:40    2.2    2.2    2.2    81   -0.8   6.0   NNE   0.50  13.0    NE   -0.6    2.0   -0.8  1021.7  0.00  0.00   0.056   0.000   20.6    44    7.9   19.5   8.35  .0749    117    1    100.0    5 
 4/12/16   5:45    2.2    2.2    2.2    81   -0.8   7.0   NNE   0.58  13.0   NNE   -1.0    2.0   -1.2  1021.7  0.00  0.00   0.056   0.000   20.6    44    7.9   19.4   8.35  .0749    117    1    100.0    5 
 4/12/16   5:50    2.2    2.2    2.2    81   -0.8   7.0    NE   0.58  13.0    NE   -1.0    2.0   -1.2  1021.7  0.00  0.00   0.056   0.000   20.6    44    7.9   19.4   8.35  .0749    117    1    100.0    5 
 4/12/16   5:55    2.2    2.2    2.2    81   -0.8   7.0   NNE   0.58  11.0    NE   -1.0    2.0   -1.2  1021.7  0.00  0.00   0.056   0.000   20.6    44    7.9   19.4   8.35  .0749    115    1    100.0    5 
 4/12/16   6:00    2.2    2.2    2.2    81   -0.8   7.0   NNE   0.58  16.0    NE   -1.0    2.0   -1.2  1021.7  0.00  0.00   0.056   0.000   20.5    44    7.8   19.4   8.35  .0749    115    1    100.0    5 
 4/12/16   6:05    2.1    2.2    2.1    81   -0.8   8.0    NE   0.67  14.0    NE   -1.4    1.9   -1.6  1021.7  0.00  0.00   0.056   0.000   20.4    44    7.8   19.3   8.35  .0749    113    1     99.1    5 
 4/12/16   6:10    2.1    2.1    2.1    81   -0.8   8.0   NNE   0.67  14.0   NNE   -1.4    1.9   -1.6  1021.7  0.00  0.00   0.056   0.000   20.4    44    7.7   19.3   8.35  .0750    117    1    100.0    5 
 4/12/16   6:15    2.1    2.1    2.1    81   -0.8   7.0   NNE   0.58  13.0    NE   -1.1    1.9   -1.2  1021.7  0.00  0.00   0.056   0.000   20.4    44    7.7   19.3   8.35  .0750    117    1    100.0    5 
 4/12/16   6:20    2.1    2.1    2.1    81   -0.8   8.0   NNE   0.67  14.0    NE   -1.4    1.9   -1.6  1021.7  0.00  0.00   0.056   0.000   20.3    44    7.7   19.2   8.35  .0750    116    1    100.0    5 
 4/12/16   6:25    2.1    2.1    2.1    81   -0.9   7.0    NE   0.58  14.0    NE   -1.1    1.9   -1.3  1021.7  0.00  0.00   0.057   0.000   20.3    44    7.6   19.2   8.35  .0750    117    1    100.0    5 
 4/12/16   6:30    2.0    2.1    2.0    81   -0.9   5.0   NNE   0.42  11.0   NNE   -0.4    1.8   -0.6  1021.8  0.00  0.00   0.057   0.000   20.3    44    7.6   19.2   8.35  .0750    117    1    100.0    5 
 4/12/16   6:35    2.0    2.1    2.0    81   -0.9   7.0    NE   0.58  12.0   NNE   -1.2    1.8   -1.4  1021.7  0.00  0.00   0.057   0.000   20.2    44    7.6   19.1   8.35  .0750    116    1    100.0    5 
 4/12/16   6:40    1.9    2.0    1.9    81   -1.0   8.0   NNE   0.67  12.0   NNE   -1.6    1.8   -1.8  1021.7  0.00  0.00   0.057   0.000   20.2    44    7.6   19.1   8.35  .0750    117    1    100.0    5 
 4/12/16   6:45    1.9    1.9    1.9    82   -0.8   8.0   NNE   0.67  13.0   NNE   -1.6    1.8   -1.8  1021.7  0.00  0.00   0.057   0.000   20.2    44    7.5   19.1   8.35  .0750    118    1    100.0    5 
 4/12/16   6:50    1.9    1.9    1.9    82   -0.9   9.0    NE   0.75  13.0    NE   -2.0    1.7   -2.2  1021.7  0.00  0.00   0.057   0.000   20.1    44    7.5   19.1   8.35  .0750    116    1    100.0    5 
 4/12/16   6:55    1.9    1.9    1.8    82   -0.9   9.0   NNE   0.75  15.0   NNE   -2.0    1.7   -2.2  1021.6  0.00  0.00   0.057   0.000   20.1    44    7.4   19.0   8.35  .0751    117    1    100.0    5 
 4/12/16   7:00    1.9    1.9    1.8    82   -0.9   7.0    NE   0.58  13.0   NNE   -1.3    1.7   -1.5  1021.8  0.00  0.00   0.057   0.000   20.1    44    7.4   19.0   8.35  .0751    114    1    100.0    5 
 4/12/16   7:05    1.8    1.9    1.8    82   -0.9   7.0    NE   0.58  12.0    NE   -1.4    1.7   -1.6  1021.7  0.00  0.00   0.057   0.000   20.0    44    7.4   18.9   8.35  .0751    117    1    100.0    5 
 4/12/16   7:10    1.8    1.8    1.8    82   -1.0   7.0    NE   0.58  12.0   ENE   -1.4    1.6   -1.6  1021.8  0.00  0.00   0.057   0.000   20.0    44    7.4   18.9   8.35  .0751    116    1    100.0    5 
 4/12/16   7:15    1.8    1.8    1.8    82   -1.0   7.0    NE   0.58  13.0    NE   -1.4    1.6   -1.6  1021.8  0.00  0.00   0.057   0.000   19.9    44    7.3   18.9   8.35  .0751    116    1    100.0    5 
 4/12/16   7:20    1.7    1.8    1.7    82   -1.0   7.0    NE   0.58  11.0   NNE   -1.6    1.6   -1.7  1021.8  0.00  0.00   0.058   0.000   19.9    44    7.3   18.9   8.35  .0751    117    1    100.0    5 
 4/12/16   7:25    1.7    1.7    1.7    82   -1.0   6.0    NE   0.50  12.0    NE   -1.2    1.6   -1.3  1021.9  0.00  0.00   0.058   0.000   19.9    44    7.3   18.8   8.35  .0751    116    1    100.0    5 
 4/12/16   7:30    1.7    1.7    1.7    82   -1.1   6.0   NNE   0.50  10.0    NE   -1.2    1.5   -1.4  1021.9  0.00  0.00   0.058   0.000   19.8    44    7.2   18.7   8.35  .0751    117    1    100.0    5 
 4/12/16   7:35    1.7    1.7    1.7    82   -1.1   7.0    NE   0.58  12.0   NNE   -1.6    1.5   -1.8  1021.9  0.00  0.00   0.058   0.000   19.8    44    7.2   18.7   8.35  .0751    117    1    100.0    5 
 4/12/16   7:40    1.7    1.7    1.7    82   -1.1   7.0   NNE   0.58  12.0   NNE   -1.6    1.5   -1.8  1022.0  0.00  0.00   0.058   0.000   19.8    44    7.2   18.7   8.35  .0752    116    1    100.0    5 
 4/12/16   7:45    1.7    1.7    1.7    82   -1.1   6.0   NNE   0.50  13.0   NNE   -1.2    1.5   -1.4  1022.0  0.00  0.00   0.058   0.000   19.7    44    7.1   18.6   8.35  .0752    116    1    100.0    5 
 4/12/16   7:50    1.7    1.7    1.7    82   -1.1   8.0   NNE   0.67  13.0    NE   -1.9    1.5   -2.1  1021.9  0.00  0.00   0.058   0.000   19.7    44    7.1   18.6   8.35  .0752    115    1    100.0    5 
 4/12/16   7:55    1.7    1.7    1.7    83   -0.9   8.0    NE   0.67  13.0    NE   -1.9    1.6   -2.0  1021.9  0.00  0.00   0.058   0.000   19.7    44    7.1   18.6   8.35  .0752    116    1    100.0    5 
 4/12/16   8:00    1.8    1.8    1.7    83   -0.8   6.0   NNE   0.50  12.0    NE   -1.1    1.7   -1.2  1021.9  0.00  0.00   0.057   0.000   19.7    44    7.1   18.6   8.35  .0752    116    1    100.0    5 
 4/12/16   8:05    1.8    1.8    1.8    83   -0.7   6.0   NNE   0.50  12.0    NE   -1.0    1.7   -1.1  1021.9  0.00  0.00   0.057   0.000   19.7    44    7.1   18.6   8.35  .0752    116    1    100.0    5 
 4/12/16   8:10    1.9    1.9    1.8    83   -0.7   6.0    NE   0.50  11.0   NNE   -0.9    1.8   -1.1  1021.9  0.00  0.00   0.057   0.000   19.7    44    7.1   18.6   8.35  .0752    117    1    100.0    5 
 4/12/16   8:15    1.9    1.9    1.8    83   -0.6   8.0   NNE   0.67  14.0   NNE   -1.6    1.8   -1.7  1021.8  0.00  0.00   0.057   0.000   19.6    44    7.0   18.5   8.35  .0752    116    1    100.0    5 
 4/12/16   8:20    2.1    2.1    1.9    83   -0.5   6.0   NNE   0.50  12.0    NE   -0.8    1.9   -0.9  1021.8  0.00  0.00   0.057   0.000   19.6    44    7.0   18.5   8.35  .0752    117    1    100.0    5 
 4/12/16   8:25    2.1    2.1    2.0    83   -0.5   7.0    NE   0.58  12.0    NE   -1.1    2.0   -1.2  1021.8  0.00  0.00   0.056   0.000   19.6    44    7.0   18.5   8.35  .0752    117    1    100.0    5 
 4/12/16   8:30    2.2    2.2    2.1    83   -0.4   7.0    NE   0.58  12.0    NE   -0.9    2.1   -1.1  1021.8  0.00  0.00   0.056   0.000   19.6    44    7.0   18.4   8.35  .0752    117    1    100.0    5 
 4/12/16   8:35    2.3    2.3    2.2    83   -0.3   6.0    NE   0.50  12.0    NE   -0.5    2.2   -0.6  1021.9  0.00  0.00   0.056   0.000   19.6    44    7.0   18.4   8.35  .0752    115    1    100.0    5 
 4/12/16   8:40    2.4    2.4    2.3    82   -0.3   6.0    NE   0.50  10.0    NE   -0.3    2.3   -0.4  1021.9  0.00  0.00   0.055   0.000   19.6    44    7.0   18.4   8.35  .0752    117    1    100.0    5 
 4/12/16   8:45    2.6    2.6    2.4    82   -0.2   6.0    NE   0.50  12.0    NE   -0.2    2.4   -0.3  1021.9  0.00  0.00   0.055   0.000   19.6    44    7.0   18.4   8.35  .0752    115    1    100.0    5 
 4/12/16   8:50    2.7    2.7    2.6    82   -0.0   7.0    NE   0.58  13.0    NE   -0.3    2.6   -0.5  1022.0  0.00  0.00   0.054   0.000   19.6    44    7.0   18.4   8.35  .0752    116    1    100.0    5 
 4/12/16   8:55    2.9    2.9    2.7    82    0.1   6.0    NE   0.50  13.0   ENE    0.2    2.7    0.1  1022.0  0.00  0.00   0.054   0.000   19.6    44    7.0   18.5   8.35  .0752    118    1    100.0    5 
 4/12/16   9:00    3.1    3.1    2.9    82    0.3   7.0    NE   0.58  11.0    NE    0.1    2.9   -0.1  1022.0  0.00  0.00   0.053   0.000   19.6    44    7.0   18.5   8.35  .0752    116    1    100.0    5 
 4/12/16   9:05    3.3    3.3    3.1    81    0.3   5.0    NE   0.42  13.0    NE    1.1    3.1    0.9  1022.0  0.00  0.00   0.052   0.000   19.6    44    7.0   18.5   8.35  .0752    117    1    100.0    5 
 4/12/16   9:10    3.6    3.6    3.3    81    0.7   5.0    NE   0.42   9.0    NE    1.5    3.4    1.3  1022.1  0.00  0.00   0.051   0.000   19.6    44    7.0   18.5   8.35  .0752    116    1    100.0    5 
 4/12/16   9:15    3.9    3.9    3.6    81    0.9   6.0    NE   0.50  11.0   ENE    1.4    3.7    1.3  1022.1  0.00  0.00   0.050   0.000   19.6    44    7.0   18.5   8.35  .0752    116    1    100.0    5 
 4/12/16   9:20    4.1    4.1    3.9    80    0.9   6.0    NE   0.50  10.0   NNE    1.6    3.9    1.4  1022.0  0.00  0.00   0.050   0.000   19.6    45    7.3   18.6   8.50  .0752    115    1    100.0    5 
 4/12/16   9:25    4.3    4.3    4.1    80    1.2   5.0    NE   0.42   9.0   ENE    2.3    4.2    2.2  1021.9  0.00  0.00   0.049   0.000   19.7    44    7.1   18.6   8.35  .0752    115    1    100.0    5 
 4/12/16   9:30    4.6    4.6    4.3    79    1.2   6.0    NE   0.50  12.0    NE    2.2    4.4    2.1  1021.9  0.00  0.00   0.048   0.000   19.6    44    7.0   18.5   8.35  .0752    117    1    100.0    5 
 4/12/16   9:35    4.7    4.7    4.6    79    1.3   6.0    NE   0.50  11.0    NE    2.3    4.5    2.2  1021.8  0.00  0.00   0.047   0.000   19.6    44    7.0   18.5   8.35  .0752    117    1    100.0    5 
 4/12/16   9:40    4.9    4.9    4.7    79    1.6   5.0    NE   0.42  11.0    NE    3.1    4.8    2.9  1021.8  0.00  0.00   0.046   0.000   19.7    44    7.1   18.6   8.35  .0752    117    1    100.0    5 
 4/12/16   9:45    5.2    5.2    4.9    78    1.7   6.0    NE   0.50  13.0   ENE    3.0    5.1    2.8  1021.8  0.00  0.00   0.046   0.000   19.7    44    7.1   18.6   8.35  .0752    117    1    100.0    5 
 4/12/16   9:50    5.5    5.5    5.3    78    2.0   7.0   ENE   0.58  15.0   ENE    3.0    5.3    2.8  1021.7  0.00  0.00   0.045   0.000   19.7    44    7.1   18.6   8.35  .0752    117    1    100.0    5 
 4/12/16   9:55    5.7    5.7    5.5    78    2.2   6.0    NE   0.50  11.0    NE    3.6    5.6    3.4  1021.7  0.00  0.00   0.044   0.000   19.7    44    7.1   18.6   8.35  .0752    117    1    100.0    5 
 4/12/16  10:00    6.0    6.0    5.8    76    2.1   7.0    NE   0.58  15.0   ENE    3.6    5.8    3.4  1021.6  0.00  0.00   0.043   0.000   19.7    44    7.1   18.6   8.35  .0752    118    1    100.0    5 
 4/12/16  10:05    6.1    6.1    6.0    75    2.0   9.0    NE   0.75  14.0   NNE    3.1    5.8    2.8  1021.6  0.00  0.00   0.043   0.000   19.7    44    7.1   18.6   8.35  .0752    117    1    100.0    5 
 4/12/16  10:10    6.2    6.2    6.1    76    2.3   6.0    NE   0.50  11.0    NE    4.2    6.0    3.9  1021.6  0.00  0.00   0.042   0.000   19.7    44    7.1   18.6   8.35  .0752    117    1    100.0    5 
 4/12/16  10:15    6.5    6.5    6.2    75    2.4   7.0    NE   0.58  15.0   ENE    4.2    6.3    4.0  1021.5  0.00  0.00   0.041   0.000   19.7    44    7.1   18.6   8.35  .0752    117    1    100.0    5 
 4/12/16  10:20    6.8    6.8    6.5    75    2.7   8.0    NE   0.67  17.0   ENE    4.2    6.6    4.0  1021.5  0.00  0.00   0.040   0.000   19.7    44    7.1   18.6   8.35  .0752    116    1    100.0    5 
 4/12/16  10:25    6.8    6.8    6.8    74    2.5  10.0   ENE   0.83  16.0    NE    3.7    6.6    3.5  1021.4  0.00  0.00   0.040   0.000   19.7    44    7.1   18.6   8.35  .0751    117    1    100.0    5 
 4/12/16  10:30    7.0    7.0    6.8    73    2.5   8.0    NE   0.67  16.0    NE    4.5    6.8    4.3  1021.3  0.00  0.00   0.039   0.000   19.7    44    7.1   18.6   8.35  .0751    117    1    100.0    5 
 4/12/16  10:35    7.1    7.1    7.0    73    2.6   8.0    NE   0.67  18.0   ENE    4.7    6.9    4.4  1021.2  0.00  0.00   0.039   0.000   19.7    44    7.1   18.6   8.35  .0751    116    1    100.0    5 
 4/12/16  10:40    7.4    7.4    7.2    71    2.5   9.0   ENE   0.75  18.0   ENE    4.7    7.2    4.4  1021.2  0.00  0.00   0.038   0.000   19.7    44    7.1   18.6   8.35  .0751    117    1    100.0    5 
 4/12/16  10:45    7.6    7.6    7.4    69    2.2  10.0   ENE   0.83  16.0   ENE    4.6    7.3    4.3  1021.1  0.00  0.00   0.037   0.000   19.8    44    7.2   18.7   8.35  .0751    117    1    100.0    5 
 4/12/16  10:50    7.9    7.9    7.6    68    2.3   9.0   ENE   0.75  16.0    NE    5.2    7.6    4.9  1021.2  0.00  0.00   0.036   0.000   19.8    44    7.2   18.7   8.35  .0751    117    1    100.0    5 
 4/12/16  10:55    8.1    8.1    7.9    67    2.3   9.0    NE   0.75  17.0     E    5.4    7.7    5.1  1021.2  0.00  0.00   0.036   0.000   19.8    44    7.2   18.7   8.35  .0751    117    1    100.0    5 
 4/12/16  11:00    8.2    8.2    8.1    65    2.0  11.0   ENE   0.92  19.0    NE    5.0    7.8    4.6  1021.1  0.00  0.00   0.035   0.000   19.8    44    7.2   18.7   8.35  .0751    116    1    100.0    5 
 4/12/16  11:05    8.2    8.2    8.2    64    1.8  11.0   ENE   0.92  20.0    NE    5.1    7.8    4.7  1021.1  0.00  0.00   0.035   0.000   19.8    44    7.2   18.7   8.35  .0751    118    1    100.0    5 
 4/12/16  11:10    8.2    8.2    8.2    65    2.0   8.0   ENE   0.67  14.0   ENE    5.9    7.8    5.6  1021.0  0.00  0.00   0.035   0.000   19.8    44    7.2   18.7   8.35  .0751    117    1    100.0    5 
 4/12/16  11:15    8.3    8.3    8.2    64    1.9   8.0    NE   0.67  17.0    NE    6.0    7.9    5.6  1021.1  0.00  0.00   0.035   0.000   19.8    44    7.2   18.7   8.35  .0751    117    1    100.0    5 
 4/12/16  11:20    8.3    8.3    8.3    63    1.7   9.0   ENE   0.75  16.0     E    5.7    7.9    5.3  1021.1  0.00  0.00   0.035   0.000   19.9    44    7.3   18.8   8.35  .0751    114    1    100.0    5 
 4/12/16  11:25    8.4    8.4    8.3    63    1.8  10.0   ENE   0.83  18.0     E    5.6    8.1    5.2  1021.0  0.00  0.00   0.034   0.000   19.9    44    7.3   18.8   8.35  .0751    117    1    100.0    5 
 4/12/16  11:30    8.4    8.4    8.4    62    1.6  10.0   ENE   0.83  17.0     E    5.6    8.0    5.1  1021.0  0.00  0.00   0.034   0.000   19.9    44    7.3   18.8   8.35  .0751    117    1    100.0    5 
 4/12/16  11:35    8.6    8.6    8.4    62    1.7   9.0   ENE   0.75  17.0   ENE    6.0    8.1    5.6  1021.1  0.00  0.00   0.034   0.000   19.9    44    7.3   18.8   8.35  .0751    116    1    100.0    5 
 4/12/16  11:40    8.8    8.8    8.6    61    1.7   8.0   ENE   0.67  16.0   ENE    6.7    8.4    6.2  1021.0  0.00  0.00   0.033   0.000   19.9    44    7.3   18.8   8.35  .0751    117    1    100.0    5 
 4/12/16  11:45    9.1    9.1    8.8    60    1.7   9.0   ENE   0.75  16.0   ENE    6.6    8.6    6.2  1021.1  0.00  0.00   0.032   0.000   19.9    44    7.3   18.9   8.35  .0750    117    1    100.0    5 
 4/12/16  11:50    9.2    9.2    9.1    60    1.8   7.0   ENE   0.58  13.0   ENE    7.4    8.7    7.0  1021.1  0.00  0.00   0.032   0.000   19.9    44    7.3   18.9   8.35  .0750    116    1    100.0    5 
 4/12/16  11:55    9.6    9.6    9.2    60    2.2  10.0   ENE   0.83  16.0     E    6.8    9.1    6.4  1021.1  0.00  0.00   0.030   0.000   20.0    44    7.4   18.9   8.35  .0750    117    1    100.0    5 
 4/12/16  12:00    9.9    9.9    9.6    58    2.0   8.0   ENE   0.67  15.0   ENE    7.9    9.4    7.4  1021.2  0.00  0.00   0.029   0.000   20.0    44    7.4   18.9   8.35  .0750    115    1    100.0    5 
 4/12/16  12:05   10.2   10.2    9.9    58    2.3  10.0     E   0.83  16.0   ENE    7.7    9.7    7.2  1021.2  0.00  0.00   0.028   0.000   20.0    44    7.4   18.9   8.35  .0750    116    1    100.0    5 
 4/12/16  12:10   10.5   10.5   10.2    57    2.3   9.0   ENE   0.75  15.0     E    8.3    9.9    7.8  1021.1  0.00  0.00   0.027   0.000   20.0    44    7.4   18.9   8.35  .0750    118    1    100.0    5 
 4/12/16  12:15   10.7   10.7   10.5    56    2.2   7.0   ENE   0.58  14.0   ENE    9.2   10.1    8.6  1021.2  0.00  0.00   0.027   0.000   20.0    44    7.4   18.9   8.35  .0750    117    1    100.0    5 
 4/12/16  12:20   10.8   10.8   10.7    55    2.1   9.0   ENE   0.75  16.0   ENE    8.6   10.2    8.0  1021.2  0.00  0.00   0.026   0.000   20.1    44    7.4   19.0   8.35  .0750    116    1    100.0    5 
 4/12/16  12:25   10.8   10.8   10.8    56    2.4   8.0   ENE   0.67  15.0   ENE    9.1   10.2    8.4  1021.2  0.00  0.00   0.026   0.000   20.1    44    7.4   19.0   8.35  .0750    116    1    100.0    5 
 4/12/16  12:30   10.6   10.8   10.6    54    1.6   9.0   ENE   0.75  17.0   ENE    8.4    9.9    7.8  1021.2  0.00  0.00   0.027   0.000   20.1    44    7.4   19.0   8.35  .0750    117    1    100.0    5 
 4/12/16  12:35   10.6   10.6   10.5    56    2.2   7.0   ENE   0.58  10.0    NE    9.2   10.0    8.6  1021.1  0.00  0.00   0.027   0.000   20.1    44    7.5   19.1   8.35  .0750    117    1    100.0    5 
 4/12/16  12:40   10.6   10.7   10.6    55    1.9   6.0    NE   0.50  16.0    NE    9.4   10.0    8.8  1021.0  0.00  0.00   0.027   0.000   20.1    44    7.5   19.1   8.35  .0750    117    1    100.0    5 
 4/12/16  12:45   10.8   10.8   10.6    55    2.1   6.0   ENE   0.50  13.0   ENE    9.6   10.2    9.0  1020.9  0.00  0.00   0.026   0.000   20.1    44    7.5   19.1   8.35  .0750    116    1    100.0    5 
 4/12/16  12:50   10.9   10.9   10.8    54    2.0   6.0   ENE   0.50  11.0    NE    9.8   10.3    9.2  1020.9  0.00  0.00   0.026   0.000   20.1    44    7.5   19.1   8.35  .0750    117    1    100.0    5 
 4/12/16  12:55   11.0   11.1   10.9    54    2.0   6.0    NE   0.50  13.0    NE    9.9   10.3    9.2  1020.8  0.00  0.00   0.025   0.000   20.2    44    7.5   19.1   8.35  .0750    117    1    100.0    5 
 4/12/16  13:00   10.9   11.0   10.9    53    1.7   7.0   ENE   0.58  15.0   ENE    9.6   10.2    8.8  1020.9  0.00  0.00   0.026   0.000   20.2    44    7.5   19.1   8.35  .0750    117    1    100.0    5 
 4/12/16  13:05   10.8   11.0   10.8    52    1.4   9.0   ENE   0.75  15.0   ENE    8.7   10.1    8.0  1020.7  0.00  0.00   0.026   0.000   20.2    44    7.6   19.1   8.35  .0749    116    1    100.0    5 
 4/12/16  13:10   10.6   10.8   10.6    53    1.4   9.0   ENE   0.75  16.0   ENE    8.4    9.9    7.7  1020.7  0.00  0.00   0.027   0.000   20.2    44    7.6   19.1   8.35  .0749    118    1    100.0    5 
 4/12/16  13:15   10.4   10.6   10.4    53    1.3  10.0   ENE   0.83  16.0   ENE    7.9    9.8    7.3  1020.6  0.00  0.00   0.027   0.000   20.2    44    7.6   19.1   8.35  .0749    117    1    100.0    5 
 4/12/16  13:20   10.6   10.6   10.4    52    1.2   9.0     E   0.75  17.0   ENE    8.4    9.9    7.8  1020.6  0.00  0.00   0.027   0.000   20.2    44    7.6   19.1   8.35  .0749    117    1    100.0    5 
 4/12/16  13:25   10.9   10.9   10.6    52    1.4   8.0     E   0.67  15.0   ENE    9.1   10.2    8.4  1020.7  0.00  0.00   0.026   0.000   20.3    44    7.6   19.2   8.35  .0749    116    1    100.0    5 
 4/12/16  13:30   10.8   10.9   10.8    50    0.8   8.0    NE   0.67  13.0    NE    9.0   10.0    8.2  1020.8  0.00  0.00   0.026   0.000   20.3    44    7.6   19.2   8.35  .0749    117    1    100.0    5 
 4/12/16  13:35   10.8   10.8   10.7    50    0.8   7.0   ENE   0.58  12.0    NE    9.4   10.1    8.7  1020.7  0.00  0.00   0.026   0.000   20.3    44    7.6   19.2   8.35  .0749    117    1    100.0    5 
 4/12/16  13:40   10.7   10.9   10.7    47   -0.2  11.0    NE   0.92  18.0    NE    7.8    9.8    7.0  1020.6  0.00  0.00   0.027   0.000   20.3    44    7.7   19.2   8.35  .0749    117    1    100.0    5 
 4/12/16  13:45   10.3   10.6   10.3    48   -0.2   9.0   ENE   0.75  15.0    NE    8.1    9.6    7.4  1020.6  0.00  0.00   0.028   0.000   20.3    44    7.7   19.2   8.35  .0749    116    1    100.0    5 
 4/12/16  13:50   10.3   10.4   10.3    47   -0.5   8.0   ENE   0.67  20.0   ENE    8.4    9.6    7.7  1020.6  0.00  0.00   0.028   0.000   20.3    44    7.7   19.2   8.35  .0749    117    1    100.0    5 
 4/12/16  13:55   10.6   10.6   10.3    48   -0.0   8.0   ENE   0.67  15.0   ENE    8.7    9.8    7.9  1020.6  0.00  0.00   0.027   0.000   20.3    44    7.7   19.2   8.35  .0749    117    1    100.0    5 
 4/12/16  14:00   10.8   10.8   10.6    48    0.2   7.0     E   0.58  15.0     E    9.4   10.0    8.6  1020.6  0.00  0.00   0.026   0.000   20.4    44    7.7   19.3   8.35  .0749    117    1    100.0    5 
 4/12/16  14:05   10.9   10.9   10.8    48    0.3   9.0   ENE   0.75  15.0   ENE    8.8   10.1    7.9  1020.5  0.00  0.00   0.026   0.000   20.4    44    7.8   19.3   8.35  .0748    115    1    100.0    5 
 4/12/16  14:10   10.9   10.9   10.8    49    0.6   8.0   ENE   0.67  15.0     E    9.1   10.1    8.3  1020.5  0.00  0.00   0.026   0.000   20.4    44    7.8   19.3   8.35  .0749    117    1    100.0    5 
 4/12/16  14:15   11.1   11.1   10.9    48    0.4   7.0   ENE   0.58  13.0     E    9.7   10.2    8.8  1020.6  0.00  0.00   0.025   0.000   20.5    44    7.8   19.4   8.35  .0748    118    1    100.0    5 
 4/12/16  14:20   11.2   11.2   11.1    48    0.6   6.0     E   0.50  13.0     E   10.1   10.3    9.2  1020.6  0.00  0.00   0.025   0.000   20.6    44    7.9   19.4   8.35  .0748    117    1    100.0    5 
 4/12/16  14:25   11.2   11.3   11.2    47    0.3   7.0   ENE   0.58  14.0    NE    9.9   10.3    9.0  1020.5  0.00  0.00   0.025   0.000   20.6    44    7.9   19.4   8.35  .0748    117    1    100.0    5 
 4/12/16  14:30   11.2   11.2   11.2    46   -0.0   8.0   ENE   0.67  14.0   ENE    9.4   10.2    8.5  1020.6  0.00  0.00   0.025   0.000   20.6    44    7.9   19.5   8.35  .0748    117    1    100.0    5 
 4/12/16  14:35   10.8   11.2   10.8    46   -0.3   8.0   ENE   0.67  16.0    NE    9.1    9.9    8.2  1020.6  0.00  0.00   0.026   0.000   20.6    44    7.9   19.5   8.35  .0748    117    1    100.0    5 
 4/12/16  14:40   10.3   10.8   10.3    48   -0.2   8.0   ENE   0.67  16.0   ENE    8.4    9.6    7.7  1020.6  0.00  0.00   0.028   0.000   20.6    44    7.9   19.5   8.35  .0748    117    1    100.0    5 
 4/12/16  14:45   10.1   10.3   10.1    49   -0.1   6.0   ENE   0.50  12.0   ENE    8.8    9.4    8.2  1020.6  0.00  0.00   0.029   0.000   20.6    44    7.9   19.5   8.35  .0748    115    1    100.0    5 
 4/12/16  14:50    9.8   10.1    9.8    50   -0.2   7.0    NE   0.58  13.0   ENE    8.2    9.1    7.5  1020.5  0.00  0.00   0.030   0.000   20.7    44    8.0   19.5   8.35  .0748    117    1    100.0    5 
 4/12/16  14:55    9.2    9.8    9.2    52   -0.1   7.0    NE   0.58  12.0   ENE    7.5    8.6    6.9  1020.6  0.00  0.00   0.032   0.000   20.7    44    8.0   19.5   8.35  .0748    117    1    100.0    5 
 4/12/16  15:00    8.9    9.2    8.9    53   -0.1   5.0    NE   0.42  10.0   ENE    7.8    8.3    7.2  1020.6  0.00  0.00   0.033   0.000   20.7    44    8.0   19.5   8.35  .0748    117    1    100.0    5 
 4/12/16  15:05    8.4    8.9    8.4    54   -0.3   5.0    NE   0.42  11.0   ENE    7.2    7.9    6.6  1020.6  0.00  0.00   0.034   0.000   20.7    44    8.0   19.5   8.35  .0748    116    1    100.0    5 
 4/12/16  15:10    8.0    8.4    8.0    55   -0.5   6.0    NE   0.50  10.0   ENE    6.3    7.4    5.8  1020.5  0.00  0.00   0.036   0.000   20.6    44    7.9   19.5   8.35  .0748    117    1    100.0    5 
 4/12/16  15:15    7.7    8.0    7.7    55   -0.8   5.0    NE   0.42  11.0    NE    6.3    7.1    5.7  1020.5  0.00  0.00   0.037   0.000   20.6    43    7.6   19.4   8.25  .0748    117    1    100.0    5 
 4/12/16  15:20    7.2    7.7    7.2    56   -1.0   6.0    NE   0.50  11.0    NE    5.4    6.7    4.8  1020.5  0.00  0.00   0.039   0.000   20.6    43    7.6   19.4   8.25  .0748    118    1    100.0    5 
 4/12/16  15:25    6.8    7.2    6.8    57   -1.1   6.0    NE   0.50  11.0   ENE    4.9    6.3    4.4  1020.6  0.00  0.00   0.040   0.000   20.6    43    7.6   19.4   8.25  .0748    117    1    100.0    5 
 4/12/16  15:30    6.4    6.8    6.4    58   -1.2   5.0    NE   0.42  10.0    NE    4.8    5.9    4.3  1020.6  0.00  0.00   0.041   0.000   20.6    43    7.5   19.4   8.25  .0748    117    1    100.0    5 
 4/12/16  15:35    6.2    6.5    6.2    59   -1.3   7.0    NE   0.58  11.0    NE    3.8    5.7    3.4  1020.5  0.00  0.00   0.042   0.000   20.6    43    7.5   19.4   8.25  .0748    117    1    100.0    5 
 4/12/16  15:40    5.9    6.2    5.9    60   -1.3   6.0    NE   0.50  13.0   ENE    3.8    5.4    3.3  1020.5  0.00  0.00   0.043   0.000   20.6    43    7.5   19.4   8.25  .0748    117    1    100.0    5 
 4/12/16  15:45    5.7    5.9    5.7    61   -1.2   7.0   ENE   0.58  13.0   ENE    3.3    5.3    2.8  1020.5  0.00  0.00   0.044   0.000   20.5    43    7.5   19.3   8.25  .0749    117    1    100.0    5 
 4/12/16  15:50    5.6    5.7    5.6    61   -1.4   5.0    NE   0.42  11.0   ENE    3.8    5.1    3.3  1020.6  0.00  0.00   0.044   0.000   20.5    43    7.5   19.3   8.25  .0749    117    1    100.0    5 
 4/12/16  15:55    5.4    5.6    5.4    62   -1.3   5.0    NE   0.42  11.0   ENE    3.6    4.9    3.1  1020.6  0.00  0.00   0.045   0.000   20.5    43    7.5   19.3   8.25  .0749    117    1    100.0    5 
 4/12/16  16:00    5.2    5.4    5.2    63   -1.3   7.0    NE   0.58  12.0   ENE    2.7    4.8    2.3  1020.7  0.00  0.00   0.046   0.000   20.5    43    7.5   19.3   8.25  .0749    116    1    100.0    5 
 4/12/16  16:05    5.1    5.2    5.1    64   -1.2   6.0    NE   0.50  10.0    NE    2.8    4.7    2.4  1020.7  0.00  0.00   0.046   0.000   20.5    43    7.5   19.3   8.25  .0749    117    1    100.0    5 
 4/12/16  16:10    4.9    5.1    4.9    64   -1.3   6.0    NE   0.50  10.0    NE    2.7    4.6    2.3  1020.7  0.00  0.00   0.046   0.000   20.5    43    7.5   19.3   8.25  .0749    115    1    100.0    5 
 4/12/16  16:15    4.9    4.9    4.9    65   -1.1   5.0    NE   0.42  10.0   ENE    3.0    4.5    2.6  1020.8  0.00  0.00   0.047   0.000   20.6    43    7.5   19.4   8.25  .0749    117    1    100.0    5 
 4/12/16  16:20    4.8    4.9    4.8    65   -1.3   5.0    NE   0.42  11.0    NE    2.9    4.4    2.5  1020.8  0.00  0.00   0.047   0.000   20.6    44    7.9   19.4   8.35  .0748    118    1    100.0    5 
 4/12/16  16:25    4.7    4.8    4.7    66   -1.1   5.0    NE   0.42   9.0    NE    2.7    4.3    2.3  1020.8  0.00  0.00   0.047   0.000   20.6    44    7.9   19.5   8.35  .0748    117    1    100.0    5 
 4/12/16  16:30    4.6    4.7    4.6    66   -1.2   5.0    NE   0.42  11.0   ENE    2.7    4.2    2.3  1020.9  0.00  0.00   0.048   0.000   20.7    44    8.0   19.5   8.35  .0748    115    1    100.0    5 
 4/12/16  16:35    4.5    4.6    4.5    67   -1.1   6.0    NE   0.50  11.0   ENE    2.2    4.1    1.8  1020.9  0.00  0.00   0.048   0.000   20.7    44    8.0   19.5   8.35  .0748    115    1    100.0    5 
 4/12/16  16:40    4.4    4.5    4.4    67   -1.2   5.0    NE   0.42   9.0   ENE    2.5    4.1    2.1  1021.0  0.00  0.00   0.048   0.000   20.7    43    7.7   19.5   8.25  .0748    116    1    100.0    5 
 4/12/16  16:45    4.4    4.4    4.4    68   -1.0   7.0   ENE   0.58  13.0   ENE    1.7    4.1    1.4  1020.9  0.00  0.00   0.048   0.000   20.8    43    7.7   19.6   8.25  .0748    116    1    100.0    5 
 4/12/16  16:50    4.4    4.4    4.4    69   -0.8   5.0    NE   0.42   9.0    NE    2.4    4.1    2.1  1021.0  0.00  0.00   0.048   0.000   20.8    43    7.7   19.6   8.25  .0748    116    1    100.0    5 
 4/12/16  16:55    4.3    4.4    4.3    69   -0.9   4.0    NE   0.33  10.0   ENE    2.8    4.0    2.5  1021.2  0.00  0.00   0.049   0.000   20.8    43    7.7   19.6   8.25  .0748    116    1    100.0    5 
 4/12/16  17:00    4.3    4.3    4.3    70   -0.7   5.0    NE   0.42  10.0   ENE    2.3    3.9    1.9  1021.2  0.00  0.00   0.049   0.000   20.8    43    7.7   19.6   8.25  .0748    115    1    100.0    5 
 4/12/16  17:05    4.2    4.3    4.2    71   -0.6   6.0    NE   0.50  10.0    NE    1.8    3.9    1.5  1021.1  0.00  0.00   0.049   0.000   20.8    43    7.7   19.6   8.25  .0748    117    1    100.0    5 
 4/12/16  17:10    4.2    4.2    4.2    72   -0.4   5.0    NE   0.42  11.0    NE    2.2    3.9    1.9  1021.2  0.00  0.00   0.049   0.000   20.8    43    7.7   19.6   8.25  .0748    117    1    100.0    5 
 4/12/16  17:15    4.2    4.2    4.2    73   -0.2   4.0    NE   0.33   8.0   ENE    2.6    3.9    2.3  1021.3  0.00  0.00   0.049   0.000   20.8    43    7.7   19.6   8.25  .0748    115    1    100.0    5 
 4/12/16  17:20    4.2    4.2    4.2    73   -0.2   4.0    NE   0.33  10.0    NE    2.6    3.9    2.3  1021.3  0.00  0.00   0.049   0.000   20.8    43    7.7   19.6   8.25  .0748    115    1    100.0    5 
 4/12/16  17:25    4.2    4.2    4.2    74   -0.1   4.0    NE   0.33   9.0   ENE    2.6    3.9    2.3  1021.3  0.00  0.00   0.049   0.000   20.8    43    7.8   19.6   8.25  .0748    118    1    100.0    5 
 4/12/16  17:30    4.2    4.2    4.1    75    0.1   6.0    NE   0.50  11.0    NE    1.8    3.9    1.5  1021.2  0.00  0.00   0.049   0.000   20.8    43    7.8   19.6   8.25  .0748    115    1    100.0    5 
 4/12/16  17:35    4.2    4.2    4.2    75    0.1   6.0    NE   0.50  10.0    NE    1.8    3.9    1.5  1021.3  0.00  0.00   0.049   0.000   20.8    43    7.8   19.6   8.25  .0748    116    1    100.0    5 
 4/12/16  17:40    4.2    4.2    4.2    76    0.3   6.0    NE   0.50  11.0    NE    1.8    3.9    1.6  1021.3  0.00  0.00   0.049   0.000   20.8    43    7.8   19.6   8.25  .0748    113    1     99.1    5 
 4/12/16  17:45    4.2    4.2    4.2    76    0.3   6.0   ENE   0.50  13.0   ENE    1.8    3.9    1.6  1021.3  0.00  0.00   0.049   0.000   20.9    43    7.8   19.6   8.25  .0748    116    1    100.0    5 
 4/12/16  17:50    4.2    4.2    4.2    77    0.5   6.0   ENE   0.50  12.0    NE    1.8    4.0    1.6  1021.2  0.00  0.00   0.049   0.000   20.9    43    7.8   19.6   8.25  .0748    116    1    100.0    5 
 4/12/16  17:55    4.2    4.2    4.2    77    0.5   7.0   ENE   0.58  15.0   ENE    1.5    4.0    1.3  1021.3  0.00  0.00   0.049   0.000   20.9    43    7.9   19.7   8.25  .0748    115    1    100.0    5 
 4/12/16  18:00    4.2    4.2    4.2    78    0.7   6.0   ENE   0.50  11.0    NE    1.8    4.0    1.6  1021.4  0.00  0.00   0.049   0.000   20.9    43    7.9   19.7   8.25  .0748    117    1    100.0    5 
 4/12/16  18:05    4.3    4.3    4.2    78    0.8   6.0   ENE   0.50  13.0   ENE    1.9    4.1    1.7  1021.5  0.00  0.00   0.049   0.000   21.1    43    8.0   19.7   8.25  .0748    116    1    100.0    5 
 4/12/16  18:10    4.3    4.3    4.3    78    0.8   6.0   ENE   0.50  12.0    NE    1.9    4.1    1.7  1021.5  0.00  0.00   0.049   0.000   21.1    44    8.4   19.8   8.35  .0747    116    1    100.0    5 
 4/12/16  18:15    4.4    4.4    4.3    78    0.9   6.0   ENE   0.50  11.0   ENE    2.0    4.2    1.8  1021.5  0.00  0.00   0.048   0.000   21.2    44    8.4   19.9   8.35  .0747    116    1    100.0    5 
 4/12/16  18:20    4.4    4.4    4.4    79    1.1   6.0   ENE   0.50  10.0     E    2.1    4.3    1.9  1021.6  0.00  0.00   0.048   0.000   21.2    44    8.5   20.0   8.35  .0747    117    1    100.0    5 
 4/12/16  18:25    4.5    4.5    4.4    79    1.2   6.0    NE   0.50  13.0   ENE    2.2    4.3    2.0  1021.5  0.00  0.00   0.048   0.000   21.2    43    8.1   19.9   8.24  .0747    117    1    100.0    5 
 4/12/16  18:30    4.6    4.6    4.5    79    1.2   6.0   ENE   0.50  11.0   ENE    2.2    4.4    2.1  1021.6  0.00  0.00   0.048   0.000   21.3    43    8.2   20.0   8.24  .0747    117    1    100.0    5 
 4/12/16  18:35    4.6    4.6    4.6    79    1.3   5.0    NE   0.42   9.0    NE    2.7    4.4    2.5  1021.5  0.00  0.00   0.048   0.000   21.3    43    8.2   20.0   8.24  .0747    117    1    100.0    5 
 4/12/16  18:40    4.7    4.7    4.6    79    1.4   6.0   ENE   0.50  13.0   ENE    2.4    4.6    2.2  1021.5  0.00  0.00   0.047   0.000   21.3    44    8.6   20.1   8.34  .0747    116    1    100.0    5 
 4/12/16  18:45    4.8    4.8    4.7    79    1.4   6.0    NE   0.50  12.0   ENE    2.5    4.6    2.3  1021.5  0.00  0.00   0.047   0.000   21.3    44    8.5   20.1   8.34  .0747    116    1    100.0    5 
 4/12/16  18:50    4.8    4.8    4.8    80    1.7   7.0   ENE   0.58  11.0   ENE    2.2    4.7    2.0  1021.6  0.00  0.00   0.047   0.000   21.3    44    8.6   20.1   8.34  .0747    117    1    100.0    5 
 4/12/16  18:55    4.9    4.9    4.8    80    1.8   5.0    NE   0.42  10.0   ENE    3.1    4.8    2.9  1021.6  0.00  0.00   0.046   0.000   21.3    44    8.6   20.1   8.34  .0747    115    1    100.0    5 
 4/12/16  19:00    5.0    5.0    4.9    80    1.8   6.0    NE   0.50  13.0   ENE    2.7    4.8    2.6  1021.6  0.00  0.00   0.046   0.000   21.3    44    8.6   20.1   8.34  .0747    117    1    100.0    5 
 4/12/16  19:05    5.0    5.1    5.0    80    1.8   3.0    NE   0.25   9.0    NE    4.2    4.8    4.0  1021.6  0.00  0.00   0.046   0.000   21.4    44    8.6   20.2   8.34  .0746    114    1    100.0    5 
 4/12/16  19:10    4.9    5.0    4.9    80    1.7   4.0    NE   0.33   9.0    NE    3.5    4.7    3.3  1021.6  0.00  0.00   0.047   0.000   21.4    44    8.6   20.2   8.34  .0746    117    1    100.0    5 
 4/12/16  19:15    4.7    4.9    4.7    79    1.3   4.0    NE   0.33   7.0    NE    3.2    4.5    3.1  1021.6  0.00  0.00   0.047   0.000   21.4    44    8.6   20.2   8.34  .0746    116    1    100.0    5 
 4/12/16  19:20    4.4    4.7    4.4    79    1.1   5.0    NE   0.42  11.0    NE    2.5    4.3    2.3  1021.6  0.00  0.00   0.048   0.000   21.4    44    8.7   20.3   8.34  .0746    117    1    100.0    5 
 4/12/16  19:25    4.2    4.4    4.2    79    0.9   4.0    NE   0.33   9.0    NE    2.7    4.1    2.6  1021.6  0.00  0.00   0.049   0.000   21.4    44    8.7   20.3   8.34  .0746    117    1    100.0    5 
 4/12/16  19:30    4.1    4.2    4.1    80    1.0   4.0    NE   0.33   8.0    NE    2.6    3.9    2.4  1021.7  0.00  0.00   0.049   0.000   21.5    45    9.1   20.4   8.45  .0746    117    1    100.0    5 
 4/12/16  19:35    4.0    4.1    4.0    80    0.9   4.0    NE   0.33   8.0    NE    2.4    3.8    2.3  1021.7  0.00  0.00   0.050   0.000   21.6    45    9.1   20.4   8.45  .0746    118    1    100.0    5 
 4/12/16  19:40    3.9    4.0    3.9    80    0.8   3.0    NE   0.25   8.0    NE    2.9    3.8    2.8  1021.7  0.00  0.00   0.050   0.000   21.6    45    9.2   20.6   8.45  .0746    116    1    100.0    5 
 4/12/16  19:45    3.8    3.9    3.8    80    0.7   4.0    NE   0.33   8.0    NE    2.2    3.7    2.1  1021.7  0.00  0.00   0.050   0.000   21.7    45    9.2   20.6   8.45  .0746    117    1    100.0    5 
 4/12/16  19:50    3.8    3.8    3.8    81    0.8   3.0    NE   0.25   7.0    NE    2.8    3.6    2.6  1021.8  0.00  0.00   0.051   0.000   21.7    45    9.2   20.6   8.45  .0746    115    1    100.0    5 
 4/12/16  19:55    3.7    3.8    3.7    81    0.7   4.0    NE   0.33   8.0    NE    2.1    3.5    1.9  1021.8  0.00  0.00   0.051   0.000   21.7    45    9.3   20.7   8.45  .0745    117    1    100.0    5 
 4/12/16  20:00    3.6    3.7    3.6    81    0.7   4.0    NE   0.33   9.0    NE    2.0    3.4    1.8  1021.7  0.00  0.00   0.051   0.000   21.8    44    9.0   20.7   8.33  .0745    117    1    100.0    5 
 4/12/16  20:05    3.6    3.6    3.6    81    0.6   4.0    NE   0.33   9.0    NE    1.9    3.4    1.8  1021.7  0.00  0.00   0.051   0.000   21.7    44    8.9   20.6   8.33  .0746    117    1    100.0    5 
 4/12/16  20:10    3.5    3.6    3.5    82    0.7   4.0    NE   0.33   8.0    NE    1.9    3.3    1.7  1021.7  0.00  0.00   0.052   0.000   21.8    44    9.0   20.7   8.33  .0745    116    1    100.0    5 
 4/12/16  20:15    3.4    3.5    3.4    82    0.7   4.0    NE   0.33   8.0   ENE    1.8    3.3    1.6  1021.7  0.00  0.00   0.052   0.000   21.8    44    9.0   20.7   8.33  .0745    116    1    100.0    5 
 4/12/16  20:20    3.4    3.5    3.4    82    0.7   4.0    NE   0.33   9.0    NE    1.8    3.3    1.6  1021.7  0.00  0.00   0.052   0.000   21.8    44    9.0   20.7   8.33  .0745    115    1    100.0    5 
 4/12/16  20:25    3.4    3.4    3.4    83    0.8   4.0    NE   0.33   8.0    NE    1.7    3.3    1.6  1021.7  0.00  0.00   0.052   0.000   21.8    44    9.0   20.7   8.33  .0745    117    1    100.0    5 
 4/12/16  20:30    3.4    3.4    3.4    83    0.8   4.0    NE   0.33   8.0    NE    1.7    3.3    1.6  1021.8  0.00  0.00   0.052   0.000   21.8    44    9.0   20.8   8.32  .0745    116    1    100.0    5 
 4/12/16  20:35    3.3    3.4    3.3    83    0.7   3.0    NE   0.25   7.0   NNE    2.3    3.2    2.2  1021.8  0.00  0.00   0.052   0.000   21.8    44    9.0   20.7   8.33  .0745    117    1    100.0    5 
 4/12/16  20:40    3.4    3.4    3.3    83    0.8   4.0    NE   0.33  10.0    NE    1.7    3.3    1.6  1021.8  0.00  0.00   0.052   0.000   21.8    44    9.0   20.8   8.32  .0745    118    1    100.0    5 
 4/12/16  20:45    3.4    3.4    3.4    83    0.8   4.0    NE   0.33   9.0    NE    1.7    3.3    1.6  1021.8  0.00  0.00   0.052   0.000   21.8    44    9.0   20.7   8.33  .0745    117    1    100.0    5 
 4/12/16  20:50    3.4    3.4    3.4    84    1.0   4.0    NE   0.33   7.0    NE    1.8    3.3    1.7  1021.7  0.00  0.00   0.052   0.000   21.8    44    9.0   20.7   8.33  .0745    115    1    100.0    5 
 4/12/16  20:55    3.4    3.4    3.4    84    1.0   5.0    NE   0.42  11.0    NE    1.3    3.3    1.2  1021.7  0.00  0.00   0.052   0.000   21.8    44    9.0   20.7   8.33  .0745    116    1    100.0    5 
 4/12/16  21:00    3.4    3.4    3.4    84    1.0   5.0    NE   0.42   9.0    NE    1.3    3.3    1.2  1021.7  0.00  0.00   0.052   0.000   21.8    44    9.0   20.7   8.33  .0745    117    1    100.0    5 
 4/12/16  21:05    3.4    3.4    3.4    84    1.0   4.0    NE   0.33   8.0    NE    1.8    3.3    1.7  1021.7  0.00  0.00   0.052   0.000   21.8    44    9.0   20.7   8.33  .0745    116    1    100.0    5 
 4/12/16  21:10    3.5    3.5    3.4    85    1.2   4.0    NE   0.33   9.0   ENE    1.9    3.4    1.8  1021.7  0.00  0.00   0.052   0.000   21.7    44    8.9   20.6   8.33  .0746    117    1    100.0    5 
 4/12/16  21:15    3.5    3.5    3.4    85    1.2   4.0    NE   0.33   8.0    NE    1.9    3.4    1.8  1021.7  0.00  0.00   0.052   0.000   21.7    44    8.9   20.6   8.33  .0746    117    1    100.0    5 
 4/12/16  21:20    3.5    3.5    3.5    85    1.2   4.0    NE   0.33   9.0    NE    1.9    3.4    1.8  1021.7  0.00  0.00   0.052   0.000   21.7    44    8.9   20.6   8.33  .0746    117    1    100.0    5 
 4/12/16  21:25    3.6    3.6    3.5    85    1.3   4.0    NE   0.33   8.0   ENE    1.9    3.4    1.8  1021.8  0.00  0.00   0.051   0.000   21.7    44    8.9   20.6   8.33  .0746    117    1    100.0    5 
 4/12/16  21:30    3.6    3.6    3.6    85    1.3   4.0    NE   0.33  10.0    NE    1.9    3.4    1.8  1021.7  0.00  0.00   0.051   0.000   21.7    44    8.9   20.6   8.33  .0746    117    1    100.0    5 
 4/12/16  21:35    3.5    3.6    3.5    85    1.2   4.0    NE   0.33   7.0   ENE    1.9    3.4    1.8  1021.7  0.00  0.00   0.052   0.000   21.7    44    8.9   20.6   8.33  .0746    116    1    100.0    5 
 4/12/16  21:40    3.4    3.5    3.4    85    1.2   5.0    NE   0.42   9.0    NE    1.3    3.3    1.2  1021.6  0.00  0.00   0.052   0.000   21.7    43    8.5   20.5   8.21  .0746    116    1    100.0    5 
113508